<?xml version="1.0" encoding="UTF-8" standalone="no" ?>
<gpx xmlns="http://www.topografix.com/GPX/1/1" xmlns:xsi="http://www.w3.org/2001/XMLSchema-instance" xsi:schemaLocation="http://www.topografix.com/GPX/1/1 http://www.topografix.com/GPX/1/1/gpx.xsd" version="1.1" creator="VisuGPX - https://www.visugpx.com">
  <metadata>
    <name>03-AOU-21 03:58:00 PM</name>
    <desc><![CDATA[Promenade entre mer et marais. Petit port, nombreux oiseaux des marais.]]></desc>
  </metadata>
  <trk>
    <name><![CDATA[03-AOU-21 03:58:00 PM]]></name>
    <trkseg>
      <trkpt lat="46.21715" lon="-1.18778">
        <ele>-4.67</ele>
        <time>2021-08-03T09:28:37Z</time>
      </trkpt>
      <trkpt lat="46.21713" lon="-1.18779">
        <ele>-4.67</ele>
        <time>2021-08-03T09:28:40Z</time>
      </trkpt>
      <trkpt lat="46.21696" lon="-1.188">
        <ele>-3.71</ele>
        <time>2021-08-03T09:28:58Z</time>
      </trkpt>
      <trkpt lat="46.21675" lon="-1.18815">
        <ele>-2.75</ele>
        <time>2021-08-03T09:29:17Z</time>
      </trkpt>
      <trkpt lat="46.21657" lon="-1.18834">
        <ele>-1.79</ele>
        <time>2021-08-03T09:29:35Z</time>
      </trkpt>
      <trkpt lat="46.21644" lon="-1.18852">
        <ele>-1.79</ele>
        <time>2021-08-03T09:29:52Z</time>
      </trkpt>
      <trkpt lat="46.21633" lon="-1.18872">
        <ele>-0.82</ele>
        <time>2021-08-03T09:30:07Z</time>
      </trkpt>
      <trkpt lat="46.21621" lon="-1.18904">
        <ele>-0.34</ele>
        <time>2021-08-03T09:30:27Z</time>
      </trkpt>
      <trkpt lat="46.21612" lon="-1.18934">
        <ele>-0.34</ele>
        <time>2021-08-03T09:30:45Z</time>
      </trkpt>
      <trkpt lat="46.21601" lon="-1.18964">
        <ele>0.14</ele>
        <time>2021-08-03T09:31:04Z</time>
      </trkpt>
      <trkpt lat="46.21595" lon="-1.18992">
        <ele>0.14</ele>
        <time>2021-08-03T09:31:20Z</time>
      </trkpt>
      <trkpt lat="46.21589" lon="-1.19027">
        <ele>-0.34</ele>
        <time>2021-08-03T09:31:40Z</time>
      </trkpt>
      <trkpt lat="46.21585" lon="-1.19056">
        <ele>-0.34</ele>
        <time>2021-08-03T09:31:57Z</time>
      </trkpt>
      <trkpt lat="46.21578" lon="-1.19094">
        <ele>-0.34</ele>
        <time>2021-08-03T09:32:18Z</time>
      </trkpt>
      <trkpt lat="46.21572" lon="-1.19127">
        <ele>-0.82</ele>
        <time>2021-08-03T09:32:38Z</time>
      </trkpt>
      <trkpt lat="46.21571" lon="-1.19134">
        <ele>-0.34</ele>
        <time>2021-08-03T09:32:52Z</time>
      </trkpt>
      <trkpt lat="46.21572" lon="-1.19135">
        <ele>-0.34</ele>
        <time>2021-08-03T09:33:18Z</time>
      </trkpt>
      <trkpt lat="46.21571" lon="-1.19136">
        <ele>0.14</ele>
        <time>2021-08-03T09:33:54Z</time>
      </trkpt>
      <trkpt lat="46.21571" lon="-1.19133">
        <ele>0.62</ele>
        <time>2021-08-03T09:34:22Z</time>
      </trkpt>
      <trkpt lat="46.21569" lon="-1.19142">
        <ele>0.14</ele>
        <time>2021-08-03T09:34:40Z</time>
      </trkpt>
      <trkpt lat="46.2156" lon="-1.19176">
        <ele>0.14</ele>
        <time>2021-08-03T09:35:00Z</time>
      </trkpt>
      <trkpt lat="46.2155" lon="-1.19208">
        <ele>-0.34</ele>
        <time>2021-08-03T09:35:20Z</time>
      </trkpt>
      <trkpt lat="46.2154" lon="-1.19235">
        <ele>-0.34</ele>
        <time>2021-08-03T09:35:38Z</time>
      </trkpt>
      <trkpt lat="46.21533" lon="-1.19252">
        <ele>0.14</ele>
        <time>2021-08-03T09:35:55Z</time>
      </trkpt>
      <trkpt lat="46.2153" lon="-1.19258">
        <ele>-0.34</ele>
        <time>2021-08-03T09:36:10Z</time>
      </trkpt>
      <trkpt lat="46.21518" lon="-1.19287">
        <ele>0.14</ele>
        <time>2021-08-03T09:36:30Z</time>
      </trkpt>
      <trkpt lat="46.21505" lon="-1.19315">
        <ele>-0.34</ele>
        <time>2021-08-03T09:36:50Z</time>
      </trkpt>
      <trkpt lat="46.21491" lon="-1.19341">
        <ele>-0.34</ele>
        <time>2021-08-03T09:37:10Z</time>
      </trkpt>
      <trkpt lat="46.21479" lon="-1.19363">
        <ele>-0.34</ele>
        <time>2021-08-03T09:37:27Z</time>
      </trkpt>
      <trkpt lat="46.21469" lon="-1.19379">
        <ele>0.62</ele>
        <time>2021-08-03T09:37:43Z</time>
      </trkpt>
      <trkpt lat="46.21454" lon="-1.19407">
        <ele>0.62</ele>
        <time>2021-08-03T09:38:03Z</time>
      </trkpt>
      <trkpt lat="46.21447" lon="-1.19417">
        <ele>0.14</ele>
        <time>2021-08-03T09:38:12Z</time>
      </trkpt>
      <trkpt lat="46.21439" lon="-1.19433">
        <ele>0.14</ele>
        <time>2021-08-03T09:38:26Z</time>
      </trkpt>
      <trkpt lat="46.21421" lon="-1.19441">
        <ele>0.62</ele>
        <time>2021-08-03T09:38:46Z</time>
      </trkpt>
      <trkpt lat="46.2142" lon="-1.19444">
        <ele>-1.79</ele>
        <time>2021-08-03T09:39:04Z</time>
      </trkpt>
      <trkpt lat="46.21428" lon="-1.19461">
        <ele>-3.23</ele>
        <time>2021-08-03T09:39:19Z</time>
      </trkpt>
      <trkpt lat="46.21437" lon="-1.19475">
        <ele>-4.67</ele>
        <time>2021-08-03T09:39:36Z</time>
      </trkpt>
      <trkpt lat="46.21432" lon="-1.1947">
        <ele>-4.67</ele>
        <time>2021-08-03T09:39:53Z</time>
      </trkpt>
      <trkpt lat="46.21425" lon="-1.19456">
        <ele>-3.23</ele>
        <time>2021-08-03T09:40:06Z</time>
      </trkpt>
      <trkpt lat="46.2142" lon="-1.19446">
        <ele>-1.3</ele>
        <time>2021-08-03T09:40:19Z</time>
      </trkpt>
      <trkpt lat="46.21416" lon="-1.19445">
        <ele>0.14</ele>
        <time>2021-08-03T09:40:32Z</time>
      </trkpt>
      <trkpt lat="46.21416" lon="-1.1945">
        <ele>2.06</ele>
        <time>2021-08-03T09:40:41Z</time>
      </trkpt>
      <trkpt lat="46.2141" lon="-1.19476">
        <ele>1.58</ele>
        <time>2021-08-03T09:40:58Z</time>
      </trkpt>
      <trkpt lat="46.21398" lon="-1.19494">
        <ele>1.1</ele>
        <time>2021-08-03T09:41:14Z</time>
      </trkpt>
      <trkpt lat="46.21396" lon="-1.19498">
        <ele>1.58</ele>
        <time>2021-08-03T09:41:29Z</time>
      </trkpt>
      <trkpt lat="46.21395" lon="-1.19506">
        <ele>2.06</ele>
        <time>2021-08-03T09:41:45Z</time>
      </trkpt>
      <trkpt lat="46.21387" lon="-1.19507">
        <ele>2.06</ele>
        <time>2021-08-03T09:42:07Z</time>
      </trkpt>
      <trkpt lat="46.21386" lon="-1.1951">
        <ele>1.58</ele>
        <time>2021-08-03T09:42:13Z</time>
      </trkpt>
      <trkpt lat="46.21376" lon="-1.19533">
        <ele>2.06</ele>
        <time>2021-08-03T09:42:32Z</time>
      </trkpt>
      <trkpt lat="46.21367" lon="-1.1955">
        <ele>2.54</ele>
        <time>2021-08-03T09:42:48Z</time>
      </trkpt>
      <trkpt lat="46.21354" lon="-1.19574">
        <ele>3.02</ele>
        <time>2021-08-03T09:43:08Z</time>
      </trkpt>
      <trkpt lat="46.21344" lon="-1.19593">
        <ele>3.98</ele>
        <time>2021-08-03T09:43:24Z</time>
      </trkpt>
      <trkpt lat="46.21339" lon="-1.19618">
        <ele>4.46</ele>
        <time>2021-08-03T09:43:41Z</time>
      </trkpt>
      <trkpt lat="46.21337" lon="-1.19644">
        <ele>4.94</ele>
        <time>2021-08-03T09:43:58Z</time>
      </trkpt>
      <trkpt lat="46.2133" lon="-1.19669">
        <ele>5.42</ele>
        <time>2021-08-03T09:44:15Z</time>
      </trkpt>
      <trkpt lat="46.21319" lon="-1.19692">
        <ele>5.91</ele>
        <time>2021-08-03T09:44:32Z</time>
      </trkpt>
      <trkpt lat="46.21314" lon="-1.19715">
        <ele>5.91</ele>
        <time>2021-08-03T09:44:48Z</time>
      </trkpt>
      <trkpt lat="46.21304" lon="-1.19739">
        <ele>6.39</ele>
        <time>2021-08-03T09:45:06Z</time>
      </trkpt>
      <trkpt lat="46.21297" lon="-1.19751">
        <ele>8.31</ele>
        <time>2021-08-03T09:45:22Z</time>
      </trkpt>
      <trkpt lat="46.21293" lon="-1.19763">
        <ele>10.71</ele>
        <time>2021-08-03T09:45:37Z</time>
      </trkpt>
      <trkpt lat="46.21296" lon="-1.19769">
        <ele>11.19</ele>
        <time>2021-08-03T09:45:52Z</time>
      </trkpt>
      <trkpt lat="46.21297" lon="-1.19766">
        <ele>10.23</ele>
        <time>2021-08-03T09:46:07Z</time>
      </trkpt>
      <trkpt lat="46.21294" lon="-1.19771">
        <ele>11.19</ele>
        <time>2021-08-03T09:46:21Z</time>
      </trkpt>
      <trkpt lat="46.21298" lon="-1.1977">
        <ele>10.71</ele>
        <time>2021-08-03T09:46:39Z</time>
      </trkpt>
      <trkpt lat="46.213" lon="-1.19763">
        <ele>10.71</ele>
        <time>2021-08-03T09:46:52Z</time>
      </trkpt>
      <trkpt lat="46.21294" lon="-1.19768">
        <ele>10.71</ele>
        <time>2021-08-03T09:47:14Z</time>
      </trkpt>
      <trkpt lat="46.21293" lon="-1.19766">
        <ele>11.19</ele>
        <time>2021-08-03T09:47:30Z</time>
      </trkpt>
      <trkpt lat="46.21293" lon="-1.19768">
        <ele>10.71</ele>
        <time>2021-08-03T09:48:08Z</time>
      </trkpt>
      <trkpt lat="46.21292" lon="-1.19767">
        <ele>11.19</ele>
        <time>2021-08-03T09:48:47Z</time>
      </trkpt>
      <trkpt lat="46.21294" lon="-1.19764">
        <ele>11.19</ele>
        <time>2021-08-03T09:49:07Z</time>
      </trkpt>
      <trkpt lat="46.21294" lon="-1.19764">
        <ele>11.67</ele>
        <time>2021-08-03T09:49:28Z</time>
      </trkpt>
      <trkpt lat="46.21294" lon="-1.19766">
        <ele>11.67</ele>
        <time>2021-08-03T09:49:56Z</time>
      </trkpt>
      <trkpt lat="46.21293" lon="-1.19768">
        <ele>12.15</ele>
        <time>2021-08-03T09:50:32Z</time>
      </trkpt>
      <trkpt lat="46.21294" lon="-1.19768">
        <ele>12.15</ele>
        <time>2021-08-03T09:50:55Z</time>
      </trkpt>
      <trkpt lat="46.21297" lon="-1.19768">
        <ele>12.15</ele>
        <time>2021-08-03T09:51:14Z</time>
      </trkpt>
      <trkpt lat="46.21294" lon="-1.19765">
        <ele>12.15</ele>
        <time>2021-08-03T09:51:31Z</time>
      </trkpt>
      <trkpt lat="46.21296" lon="-1.19761">
        <ele>12.15</ele>
        <time>2021-08-03T09:52:03Z</time>
      </trkpt>
      <trkpt lat="46.21297" lon="-1.19763">
        <ele>12.15</ele>
        <time>2021-08-03T09:52:29Z</time>
      </trkpt>
      <trkpt lat="46.21296" lon="-1.19762">
        <ele>12.63</ele>
        <time>2021-08-03T09:53:00Z</time>
      </trkpt>
      <trkpt lat="46.21292" lon="-1.19775">
        <ele>11.67</ele>
        <time>2021-08-03T09:53:12Z</time>
      </trkpt>
      <trkpt lat="46.21293" lon="-1.19779">
        <ele>10.71</ele>
        <time>2021-08-03T09:53:27Z</time>
      </trkpt>
      <trkpt lat="46.21293" lon="-1.19781">
        <ele>9.75</ele>
        <time>2021-08-03T09:53:28Z</time>
      </trkpt>
      <trkpt lat="46.21296" lon="-1.19791">
        <ele>8.79</ele>
        <time>2021-08-03T09:53:37Z</time>
      </trkpt>
      <trkpt lat="46.21304" lon="-1.19783">
        <ele>8.31</ele>
        <time>2021-08-03T09:53:52Z</time>
      </trkpt>
      <trkpt lat="46.21296" lon="-1.19807">
        <ele>8.79</ele>
        <time>2021-08-03T09:54:09Z</time>
      </trkpt>
      <trkpt lat="46.21292" lon="-1.19825">
        <ele>8.31</ele>
        <time>2021-08-03T09:54:22Z</time>
      </trkpt>
      <trkpt lat="46.21293" lon="-1.19828">
        <ele>8.79</ele>
        <time>2021-08-03T09:54:24Z</time>
      </trkpt>
      <trkpt lat="46.21293" lon="-1.19838">
        <ele>8.79</ele>
        <time>2021-08-03T09:54:31Z</time>
      </trkpt>
      <trkpt lat="46.21293" lon="-1.19841">
        <ele>8.79</ele>
        <time>2021-08-03T09:54:33Z</time>
      </trkpt>
      <trkpt lat="46.21292" lon="-1.19845">
        <ele>9.27</ele>
        <time>2021-08-03T09:54:48Z</time>
      </trkpt>
      <trkpt lat="46.2129" lon="-1.19846">
        <ele>8.79</ele>
        <time>2021-08-03T09:54:59Z</time>
      </trkpt>
      <trkpt lat="46.21282" lon="-1.19856">
        <ele>9.27</ele>
        <time>2021-08-03T09:55:12Z</time>
      </trkpt>
      <trkpt lat="46.21271" lon="-1.19885">
        <ele>9.27</ele>
        <time>2021-08-03T09:55:32Z</time>
      </trkpt>
      <trkpt lat="46.21257" lon="-1.19909">
        <ele>9.75</ele>
        <time>2021-08-03T09:55:53Z</time>
      </trkpt>
      <trkpt lat="46.21238" lon="-1.19927">
        <ele>9.27</ele>
        <time>2021-08-03T09:56:14Z</time>
      </trkpt>
      <trkpt lat="46.21218" lon="-1.19946">
        <ele>9.75</ele>
        <time>2021-08-03T09:56:35Z</time>
      </trkpt>
      <trkpt lat="46.21203" lon="-1.19966">
        <ele>9.27</ele>
        <time>2021-08-03T09:56:54Z</time>
      </trkpt>
      <trkpt lat="46.21182" lon="-1.1999">
        <ele>9.75</ele>
        <time>2021-08-03T09:57:17Z</time>
      </trkpt>
      <trkpt lat="46.21168" lon="-1.20006">
        <ele>8.79</ele>
        <time>2021-08-03T09:57:35Z</time>
      </trkpt>
      <trkpt lat="46.21157" lon="-1.20024">
        <ele>9.27</ele>
        <time>2021-08-03T09:57:51Z</time>
      </trkpt>
      <trkpt lat="46.21139" lon="-1.20043">
        <ele>9.75</ele>
        <time>2021-08-03T09:58:10Z</time>
      </trkpt>
      <trkpt lat="46.21119" lon="-1.20061">
        <ele>9.75</ele>
        <time>2021-08-03T09:58:31Z</time>
      </trkpt>
      <trkpt lat="46.211" lon="-1.20079">
        <ele>9.75</ele>
        <time>2021-08-03T09:58:50Z</time>
      </trkpt>
      <trkpt lat="46.21079" lon="-1.20098">
        <ele>10.23</ele>
        <time>2021-08-03T09:59:12Z</time>
      </trkpt>
      <trkpt lat="46.21062" lon="-1.2011">
        <ele>9.75</ele>
        <time>2021-08-03T09:59:33Z</time>
      </trkpt>
      <trkpt lat="46.21053" lon="-1.20118">
        <ele>9.75</ele>
        <time>2021-08-03T09:59:45Z</time>
      </trkpt>
      <trkpt lat="46.21037" lon="-1.20127">
        <ele>9.75</ele>
        <time>2021-08-03T10:00:05Z</time>
      </trkpt>
      <trkpt lat="46.21031" lon="-1.20135">
        <ele>9.27</ele>
        <time>2021-08-03T10:00:18Z</time>
      </trkpt>
      <trkpt lat="46.21015" lon="-1.20152">
        <ele>9.27</ele>
        <time>2021-08-03T10:00:35Z</time>
      </trkpt>
      <trkpt lat="46.20992" lon="-1.20173">
        <ele>9.27</ele>
        <time>2021-08-03T10:00:57Z</time>
      </trkpt>
      <trkpt lat="46.20964" lon="-1.20191">
        <ele>8.79</ele>
        <time>2021-08-03T10:01:21Z</time>
      </trkpt>
      <trkpt lat="46.20937" lon="-1.20209">
        <ele>8.79</ele>
        <time>2021-08-03T10:01:46Z</time>
      </trkpt>
      <trkpt lat="46.20922" lon="-1.20217">
        <ele>8.31</ele>
        <time>2021-08-03T10:02:03Z</time>
      </trkpt>
      <trkpt lat="46.20898" lon="-1.20234">
        <ele>8.79</ele>
        <time>2021-08-03T10:02:26Z</time>
      </trkpt>
      <trkpt lat="46.20875" lon="-1.2025">
        <ele>8.79</ele>
        <time>2021-08-03T10:02:48Z</time>
      </trkpt>
      <trkpt lat="46.20852" lon="-1.20267">
        <ele>8.31</ele>
        <time>2021-08-03T10:03:10Z</time>
      </trkpt>
      <trkpt lat="46.20832" lon="-1.20288">
        <ele>8.31</ele>
        <time>2021-08-03T10:03:32Z</time>
      </trkpt>
      <trkpt lat="46.20806" lon="-1.20315">
        <ele>8.31</ele>
        <time>2021-08-03T10:03:59Z</time>
      </trkpt>
      <trkpt lat="46.20782" lon="-1.20339">
        <ele>8.31</ele>
        <time>2021-08-03T10:04:24Z</time>
      </trkpt>
      <trkpt lat="46.20762" lon="-1.20361">
        <ele>8.79</ele>
        <time>2021-08-03T10:04:46Z</time>
      </trkpt>
      <trkpt lat="46.20752" lon="-1.20371">
        <ele>8.31</ele>
        <time>2021-08-03T10:05:01Z</time>
      </trkpt>
      <trkpt lat="46.2073" lon="-1.20392">
        <ele>8.79</ele>
        <time>2021-08-03T10:05:25Z</time>
      </trkpt>
      <trkpt lat="46.20717" lon="-1.20404">
        <ele>8.79</ele>
        <time>2021-08-03T10:05:41Z</time>
      </trkpt>
      <trkpt lat="46.207" lon="-1.20422">
        <ele>8.79</ele>
        <time>2021-08-03T10:06:00Z</time>
      </trkpt>
      <trkpt lat="46.20681" lon="-1.20441">
        <ele>9.27</ele>
        <time>2021-08-03T10:06:20Z</time>
      </trkpt>
      <trkpt lat="46.20679" lon="-1.20444">
        <ele>8.79</ele>
        <time>2021-08-03T10:06:37Z</time>
      </trkpt>
      <trkpt lat="46.20679" lon="-1.20444">
        <ele>9.27</ele>
        <time>2021-08-03T10:07:01Z</time>
      </trkpt>
      <trkpt lat="46.20667" lon="-1.20452">
        <ele>9.27</ele>
        <time>2021-08-03T10:07:20Z</time>
      </trkpt>
      <trkpt lat="46.20644" lon="-1.20471">
        <ele>9.27</ele>
        <time>2021-08-03T10:07:42Z</time>
      </trkpt>
      <trkpt lat="46.20621" lon="-1.20489">
        <ele>9.27</ele>
        <time>2021-08-03T10:08:03Z</time>
      </trkpt>
      <trkpt lat="46.20597" lon="-1.20508">
        <ele>9.75</ele>
        <time>2021-08-03T10:08:27Z</time>
      </trkpt>
      <trkpt lat="46.20587" lon="-1.20513">
        <ele>9.27</ele>
        <time>2021-08-03T10:08:36Z</time>
      </trkpt>
      <trkpt lat="46.20568" lon="-1.20497">
        <ele>9.27</ele>
        <time>2021-08-03T10:08:55Z</time>
      </trkpt>
      <trkpt lat="46.20551" lon="-1.20477">
        <ele>9.75</ele>
        <time>2021-08-03T10:09:14Z</time>
      </trkpt>
      <trkpt lat="46.20532" lon="-1.20455">
        <ele>9.27</ele>
        <time>2021-08-03T10:09:34Z</time>
      </trkpt>
      <trkpt lat="46.2051" lon="-1.2044">
        <ele>8.79</ele>
        <time>2021-08-03T10:09:55Z</time>
      </trkpt>
      <trkpt lat="46.20494" lon="-1.20454">
        <ele>8.79</ele>
        <time>2021-08-03T10:10:13Z</time>
      </trkpt>
      <trkpt lat="46.20487" lon="-1.20466">
        <ele>8.31</ele>
        <time>2021-08-03T10:10:30Z</time>
      </trkpt>
      <trkpt lat="46.2047" lon="-1.20493">
        <ele>8.31</ele>
        <time>2021-08-03T10:10:49Z</time>
      </trkpt>
      <trkpt lat="46.20452" lon="-1.20526">
        <ele>8.79</ele>
        <time>2021-08-03T10:11:13Z</time>
      </trkpt>
      <trkpt lat="46.20435" lon="-1.20555">
        <ele>8.79</ele>
        <time>2021-08-03T10:11:34Z</time>
      </trkpt>
      <trkpt lat="46.20416" lon="-1.20586">
        <ele>8.31</ele>
        <time>2021-08-03T10:11:57Z</time>
      </trkpt>
      <trkpt lat="46.20416" lon="-1.20587">
        <ele>8.31</ele>
        <time>2021-08-03T10:11:58Z</time>
      </trkpt>
      <trkpt lat="46.20413" lon="-1.20616">
        <ele>8.79</ele>
        <time>2021-08-03T10:12:19Z</time>
      </trkpt>
      <trkpt lat="46.20412" lon="-1.20615">
        <ele>8.79</ele>
        <time>2021-08-03T10:12:25Z</time>
      </trkpt>
      <trkpt lat="46.20386" lon="-1.20616">
        <ele>7.83</ele>
        <time>2021-08-03T10:12:46Z</time>
      </trkpt>
      <trkpt lat="46.20362" lon="-1.20611">
        <ele>7.35</ele>
        <time>2021-08-03T10:13:07Z</time>
      </trkpt>
      <trkpt lat="46.20351" lon="-1.20604">
        <ele>6.87</ele>
        <time>2021-08-03T10:13:20Z</time>
      </trkpt>
      <trkpt lat="46.20326" lon="-1.20598">
        <ele>6.39</ele>
        <time>2021-08-03T10:13:42Z</time>
      </trkpt>
      <trkpt lat="46.20303" lon="-1.20604">
        <ele>5.91</ele>
        <time>2021-08-03T10:14:01Z</time>
      </trkpt>
      <trkpt lat="46.20282" lon="-1.206">
        <ele>5.91</ele>
        <time>2021-08-03T10:14:19Z</time>
      </trkpt>
      <trkpt lat="46.20268" lon="-1.20606">
        <ele>4.94</ele>
        <time>2021-08-03T10:14:37Z</time>
      </trkpt>
      <trkpt lat="46.20268" lon="-1.20605">
        <ele>5.42</ele>
        <time>2021-08-03T10:14:55Z</time>
      </trkpt>
      <trkpt lat="46.20267" lon="-1.20606">
        <ele>4.94</ele>
        <time>2021-08-03T10:15:16Z</time>
      </trkpt>
      <trkpt lat="46.20255" lon="-1.2059">
        <ele>4.94</ele>
        <time>2021-08-03T10:15:30Z</time>
      </trkpt>
      <trkpt lat="46.20254" lon="-1.20589">
        <ele>4.94</ele>
        <time>2021-08-03T10:15:31Z</time>
      </trkpt>
      <trkpt lat="46.20254" lon="-1.20578">
        <ele>4.94</ele>
        <time>2021-08-03T10:15:46Z</time>
      </trkpt>
      <trkpt lat="46.20253" lon="-1.20577">
        <ele>4.46</ele>
        <time>2021-08-03T10:15:59Z</time>
      </trkpt>
      <trkpt lat="46.20238" lon="-1.20552">
        <ele>3.98</ele>
        <time>2021-08-03T10:16:19Z</time>
      </trkpt>
      <trkpt lat="46.20237" lon="-1.20524">
        <ele>3.5</ele>
        <time>2021-08-03T10:16:35Z</time>
      </trkpt>
      <trkpt lat="46.20238" lon="-1.20506">
        <ele>3.02</ele>
        <time>2021-08-03T10:16:52Z</time>
      </trkpt>
      <trkpt lat="46.20237" lon="-1.20508">
        <ele>3.02</ele>
        <time>2021-08-03T10:17:32Z</time>
      </trkpt>
      <trkpt lat="46.20238" lon="-1.20485">
        <ele>3.5</ele>
        <time>2021-08-03T10:17:49Z</time>
      </trkpt>
      <trkpt lat="46.20237" lon="-1.2048">
        <ele>3.5</ele>
        <time>2021-08-03T10:18:09Z</time>
      </trkpt>
      <trkpt lat="46.20232" lon="-1.20445">
        <ele>3.5</ele>
        <time>2021-08-03T10:18:30Z</time>
      </trkpt>
      <trkpt lat="46.2022" lon="-1.2042">
        <ele>3.02</ele>
        <time>2021-08-03T10:18:48Z</time>
      </trkpt>
      <trkpt lat="46.20203" lon="-1.20396">
        <ele>3.5</ele>
        <time>2021-08-03T10:19:08Z</time>
      </trkpt>
      <trkpt lat="46.2018" lon="-1.20378">
        <ele>3.5</ele>
        <time>2021-08-03T10:19:30Z</time>
      </trkpt>
      <trkpt lat="46.2017" lon="-1.20371">
        <ele>3.5</ele>
        <time>2021-08-03T10:19:48Z</time>
      </trkpt>
      <trkpt lat="46.20169" lon="-1.20372">
        <ele>3.5</ele>
        <time>2021-08-03T10:20:16Z</time>
      </trkpt>
      <trkpt lat="46.20166" lon="-1.20368">
        <ele>3.02</ele>
        <time>2021-08-03T10:20:30Z</time>
      </trkpt>
      <trkpt lat="46.20165" lon="-1.20368">
        <ele>3.5</ele>
        <time>2021-08-03T10:21:13Z</time>
      </trkpt>
      <trkpt lat="46.20167" lon="-1.20366">
        <ele>3.5</ele>
        <time>2021-08-03T10:21:33Z</time>
      </trkpt>
      <trkpt lat="46.20167" lon="-1.20368">
        <ele>3.5</ele>
        <time>2021-08-03T10:21:46Z</time>
      </trkpt>
      <trkpt lat="46.20166" lon="-1.20364">
        <ele>3.98</ele>
        <time>2021-08-03T10:21:48Z</time>
      </trkpt>
      <trkpt lat="46.20174" lon="-1.20332">
        <ele>3.5</ele>
        <time>2021-08-03T10:22:07Z</time>
      </trkpt>
      <trkpt lat="46.20183" lon="-1.20305">
        <ele>2.54</ele>
        <time>2021-08-03T10:22:24Z</time>
      </trkpt>
      <trkpt lat="46.20189" lon="-1.20278">
        <ele>2.54</ele>
        <time>2021-08-03T10:22:41Z</time>
      </trkpt>
      <trkpt lat="46.20187" lon="-1.20241">
        <ele>1.58</ele>
        <time>2021-08-03T10:23:03Z</time>
      </trkpt>
      <trkpt lat="46.20186" lon="-1.2021">
        <ele>2.06</ele>
        <time>2021-08-03T10:23:21Z</time>
      </trkpt>
      <trkpt lat="46.20192" lon="-1.20183">
        <ele>2.06</ele>
        <time>2021-08-03T10:23:38Z</time>
      </trkpt>
      <trkpt lat="46.20194" lon="-1.20178">
        <ele>2.54</ele>
        <time>2021-08-03T10:23:53Z</time>
      </trkpt>
      <trkpt lat="46.20193" lon="-1.20169">
        <ele>2.54</ele>
        <time>2021-08-03T10:24:00Z</time>
      </trkpt>
      <trkpt lat="46.20202" lon="-1.20154">
        <ele>2.06</ele>
        <time>2021-08-03T10:24:11Z</time>
      </trkpt>
      <trkpt lat="46.20208" lon="-1.2013">
        <ele>3.02</ele>
        <time>2021-08-03T10:24:28Z</time>
      </trkpt>
      <trkpt lat="46.20211" lon="-1.20107">
        <ele>2.54</ele>
        <time>2021-08-03T10:24:46Z</time>
      </trkpt>
      <trkpt lat="46.20207" lon="-1.20104">
        <ele>1.58</ele>
        <time>2021-08-03T10:25:08Z</time>
      </trkpt>
      <trkpt lat="46.20204" lon="-1.20104">
        <ele>2.06</ele>
        <time>2021-08-03T10:25:24Z</time>
      </trkpt>
      <trkpt lat="46.20212" lon="-1.20106">
        <ele>2.54</ele>
        <time>2021-08-03T10:25:38Z</time>
      </trkpt>
      <trkpt lat="46.20215" lon="-1.20098">
        <ele>2.54</ele>
        <time>2021-08-03T10:25:48Z</time>
      </trkpt>
      <trkpt lat="46.20222" lon="-1.20073">
        <ele>2.54</ele>
        <time>2021-08-03T10:26:05Z</time>
      </trkpt>
      <trkpt lat="46.20231" lon="-1.2006">
        <ele>3.02</ele>
        <time>2021-08-03T10:26:21Z</time>
      </trkpt>
      <trkpt lat="46.2023" lon="-1.20058">
        <ele>2.54</ele>
        <time>2021-08-03T10:26:39Z</time>
      </trkpt>
      <trkpt lat="46.2023" lon="-1.20057">
        <ele>2.54</ele>
        <time>2021-08-03T10:26:55Z</time>
      </trkpt>
      <trkpt lat="46.20229" lon="-1.20058">
        <ele>3.02</ele>
        <time>2021-08-03T10:27:21Z</time>
      </trkpt>
      <trkpt lat="46.20231" lon="-1.2006">
        <ele>3.02</ele>
        <time>2021-08-03T10:27:51Z</time>
      </trkpt>
      <trkpt lat="46.20232" lon="-1.2006">
        <ele>3.02</ele>
        <time>2021-08-03T10:28:25Z</time>
      </trkpt>
      <trkpt lat="46.20231" lon="-1.20057">
        <ele>2.54</ele>
        <time>2021-08-03T10:29:01Z</time>
      </trkpt>
      <trkpt lat="46.20229" lon="-1.20057">
        <ele>3.02</ele>
        <time>2021-08-03T10:29:33Z</time>
      </trkpt>
      <trkpt lat="46.2023" lon="-1.20053">
        <ele>3.5</ele>
        <time>2021-08-03T10:29:47Z</time>
      </trkpt>
      <trkpt lat="46.20226" lon="-1.20036">
        <ele>4.46</ele>
        <time>2021-08-03T10:30:02Z</time>
      </trkpt>
      <trkpt lat="46.20224" lon="-1.20026">
        <ele>4.46</ele>
        <time>2021-08-03T10:30:17Z</time>
      </trkpt>
      <trkpt lat="46.20222" lon="-1.2003">
        <ele>4.46</ele>
        <time>2021-08-03T10:30:43Z</time>
      </trkpt>
      <trkpt lat="46.20224" lon="-1.20025">
        <ele>4.46</ele>
        <time>2021-08-03T10:31:01Z</time>
      </trkpt>
      <trkpt lat="46.20221" lon="-1.20026">
        <ele>4.94</ele>
        <time>2021-08-03T10:31:23Z</time>
      </trkpt>
      <trkpt lat="46.20219" lon="-1.2002">
        <ele>4.94</ele>
        <time>2021-08-03T10:31:29Z</time>
      </trkpt>
      <trkpt lat="46.20212" lon="-1.20003">
        <ele>3.98</ele>
        <time>2021-08-03T10:31:43Z</time>
      </trkpt>
      <trkpt lat="46.20209" lon="-1.20001">
        <ele>3.98</ele>
        <time>2021-08-03T10:31:59Z</time>
      </trkpt>
      <trkpt lat="46.20204" lon="-1.20001">
        <ele>3.02</ele>
        <time>2021-08-03T10:32:23Z</time>
      </trkpt>
      <trkpt lat="46.202" lon="-1.20003">
        <ele>3.5</ele>
        <time>2021-08-03T10:32:41Z</time>
      </trkpt>
      <trkpt lat="46.2018" lon="-1.20001">
        <ele>3.02</ele>
        <time>2021-08-03T10:32:59Z</time>
      </trkpt>
      <trkpt lat="46.2016" lon="-1.20002">
        <ele>3.5</ele>
        <time>2021-08-03T10:33:17Z</time>
      </trkpt>
      <trkpt lat="46.2014" lon="-1.20004">
        <ele>3.98</ele>
        <time>2021-08-03T10:33:36Z</time>
      </trkpt>
      <trkpt lat="46.20131" lon="-1.20011">
        <ele>3.98</ele>
        <time>2021-08-03T10:33:52Z</time>
      </trkpt>
      <trkpt lat="46.20135" lon="-1.20009">
        <ele>3.5</ele>
        <time>2021-08-03T10:34:17Z</time>
      </trkpt>
      <trkpt lat="46.20134" lon="-1.20009">
        <ele>3.5</ele>
        <time>2021-08-03T10:34:46Z</time>
      </trkpt>
      <trkpt lat="46.20133" lon="-1.20011">
        <ele>3.5</ele>
        <time>2021-08-03T10:35:20Z</time>
      </trkpt>
      <trkpt lat="46.2013" lon="-1.20012">
        <ele>3.02</ele>
        <time>2021-08-03T10:35:48Z</time>
      </trkpt>
      <trkpt lat="46.20132" lon="-1.20011">
        <ele>3.5</ele>
        <time>2021-08-03T10:36:25Z</time>
      </trkpt>
      <trkpt lat="46.20131" lon="-1.2001">
        <ele>3.5</ele>
        <time>2021-08-03T10:36:55Z</time>
      </trkpt>
      <trkpt lat="46.2013" lon="-1.20007">
        <ele>3.98</ele>
        <time>2021-08-03T10:37:31Z</time>
      </trkpt>
      <trkpt lat="46.20131" lon="-1.20008">
        <ele>3.98</ele>
        <time>2021-08-03T10:38:07Z</time>
      </trkpt>
      <trkpt lat="46.20138" lon="-1.20011">
        <ele>4.46</ele>
        <time>2021-08-03T10:38:46Z</time>
      </trkpt>
      <trkpt lat="46.20137" lon="-1.2001">
        <ele>3.98</ele>
        <time>2021-08-03T10:39:13Z</time>
      </trkpt>
      <trkpt lat="46.20139" lon="-1.20009">
        <ele>4.46</ele>
        <time>2021-08-03T10:39:47Z</time>
      </trkpt>
      <trkpt lat="46.20141" lon="-1.20011">
        <ele>4.46</ele>
        <time>2021-08-03T10:40:22Z</time>
      </trkpt>
      <trkpt lat="46.20122" lon="-1.20012">
        <ele>4.94</ele>
        <time>2021-08-03T10:40:37Z</time>
      </trkpt>
      <trkpt lat="46.20111" lon="-1.20025">
        <ele>5.42</ele>
        <time>2021-08-03T10:40:54Z</time>
      </trkpt>
      <trkpt lat="46.20113" lon="-1.20023">
        <ele>4.94</ele>
        <time>2021-08-03T10:41:21Z</time>
      </trkpt>
      <trkpt lat="46.20099" lon="-1.20028">
        <ele>4.94</ele>
        <time>2021-08-03T10:41:34Z</time>
      </trkpt>
      <trkpt lat="46.20078" lon="-1.20031">
        <ele>4.94</ele>
        <time>2021-08-03T10:41:51Z</time>
      </trkpt>
      <trkpt lat="46.20077" lon="-1.20031">
        <ele>4.94</ele>
        <time>2021-08-03T10:41:52Z</time>
      </trkpt>
      <trkpt lat="46.20065" lon="-1.20017">
        <ele>4.46</ele>
        <time>2021-08-03T10:42:08Z</time>
      </trkpt>
      <trkpt lat="46.20041" lon="-1.19999">
        <ele>4.94</ele>
        <time>2021-08-03T10:42:29Z</time>
      </trkpt>
      <trkpt lat="46.20018" lon="-1.19978">
        <ele>4.46</ele>
        <time>2021-08-03T10:42:50Z</time>
      </trkpt>
      <trkpt lat="46.19994" lon="-1.19961">
        <ele>4.94</ele>
        <time>2021-08-03T10:43:11Z</time>
      </trkpt>
      <trkpt lat="46.19973" lon="-1.19949">
        <ele>4.46</ele>
        <time>2021-08-03T10:43:30Z</time>
      </trkpt>
      <trkpt lat="46.1995" lon="-1.19938">
        <ele>4.94</ele>
        <time>2021-08-03T10:43:50Z</time>
      </trkpt>
      <trkpt lat="46.19923" lon="-1.19932">
        <ele>4.94</ele>
        <time>2021-08-03T10:44:12Z</time>
      </trkpt>
      <trkpt lat="46.19897" lon="-1.19929">
        <ele>3.98</ele>
        <time>2021-08-03T10:44:34Z</time>
      </trkpt>
      <trkpt lat="46.19874" lon="-1.19923">
        <ele>4.46</ele>
        <time>2021-08-03T10:44:53Z</time>
      </trkpt>
      <trkpt lat="46.19853" lon="-1.19923">
        <ele>5.42</ele>
        <time>2021-08-03T10:45:11Z</time>
      </trkpt>
      <trkpt lat="46.19827" lon="-1.19926">
        <ele>5.42</ele>
        <time>2021-08-03T10:45:32Z</time>
      </trkpt>
      <trkpt lat="46.19808" lon="-1.19927">
        <ele>5.42</ele>
        <time>2021-08-03T10:45:49Z</time>
      </trkpt>
      <trkpt lat="46.198" lon="-1.19929">
        <ele>5.91</ele>
        <time>2021-08-03T10:45:57Z</time>
      </trkpt>
      <trkpt lat="46.19782" lon="-1.19927">
        <ele>6.87</ele>
        <time>2021-08-03T10:46:15Z</time>
      </trkpt>
      <trkpt lat="46.19779" lon="-1.19923">
        <ele>7.35</ele>
        <time>2021-08-03T10:46:19Z</time>
      </trkpt>
      <trkpt lat="46.19768" lon="-1.19909">
        <ele>8.31</ele>
        <time>2021-08-03T10:46:33Z</time>
      </trkpt>
      <trkpt lat="46.19749" lon="-1.19898">
        <ele>7.83</ele>
        <time>2021-08-03T10:46:52Z</time>
      </trkpt>
      <trkpt lat="46.19729" lon="-1.19891">
        <ele>9.27</ele>
        <time>2021-08-03T10:47:10Z</time>
      </trkpt>
      <trkpt lat="46.19712" lon="-1.19899">
        <ele>9.75</ele>
        <time>2021-08-03T10:47:26Z</time>
      </trkpt>
      <trkpt lat="46.19693" lon="-1.19912">
        <ele>9.27</ele>
        <time>2021-08-03T10:47:45Z</time>
      </trkpt>
      <trkpt lat="46.19672" lon="-1.19926">
        <ele>9.75</ele>
        <time>2021-08-03T10:48:04Z</time>
      </trkpt>
      <trkpt lat="46.19652" lon="-1.19941">
        <ele>9.75</ele>
        <time>2021-08-03T10:48:24Z</time>
      </trkpt>
      <trkpt lat="46.19633" lon="-1.1995">
        <ele>9.75</ele>
        <time>2021-08-03T10:48:42Z</time>
      </trkpt>
      <trkpt lat="46.19632" lon="-1.19954">
        <ele>9.75</ele>
        <time>2021-08-03T10:48:47Z</time>
      </trkpt>
      <trkpt lat="46.1963" lon="-1.19958">
        <ele>9.75</ele>
        <time>2021-08-03T10:48:50Z</time>
      </trkpt>
      <trkpt lat="46.1961" lon="-1.19947">
        <ele>9.75</ele>
        <time>2021-08-03T10:49:09Z</time>
      </trkpt>
      <trkpt lat="46.1959" lon="-1.19934">
        <ele>9.75</ele>
        <time>2021-08-03T10:49:28Z</time>
      </trkpt>
      <trkpt lat="46.19566" lon="-1.19918">
        <ele>9.75</ele>
        <time>2021-08-03T10:49:52Z</time>
      </trkpt>
      <trkpt lat="46.19549" lon="-1.19906">
        <ele>10.23</ele>
        <time>2021-08-03T10:50:10Z</time>
      </trkpt>
      <trkpt lat="46.1954" lon="-1.19912">
        <ele>10.71</ele>
        <time>2021-08-03T10:50:25Z</time>
      </trkpt>
      <trkpt lat="46.19544" lon="-1.19916">
        <ele>13.12</ele>
        <time>2021-08-03T10:50:41Z</time>
      </trkpt>
      <trkpt lat="46.19544" lon="-1.19921">
        <ele>13.12</ele>
        <time>2021-08-03T10:51:00Z</time>
      </trkpt>
      <trkpt lat="46.19544" lon="-1.19916">
        <ele>13.12</ele>
        <time>2021-08-03T10:51:28Z</time>
      </trkpt>
      <trkpt lat="46.19539" lon="-1.19913">
        <ele>11.67</ele>
        <time>2021-08-03T10:51:46Z</time>
      </trkpt>
      <trkpt lat="46.19526" lon="-1.19909">
        <ele>9.75</ele>
        <time>2021-08-03T10:52:01Z</time>
      </trkpt>
      <trkpt lat="46.19499" lon="-1.19908">
        <ele>8.31</ele>
        <time>2021-08-03T10:52:23Z</time>
      </trkpt>
      <trkpt lat="46.19473" lon="-1.19902">
        <ele>8.79</ele>
        <time>2021-08-03T10:52:44Z</time>
      </trkpt>
      <trkpt lat="46.19458" lon="-1.19893">
        <ele>6.87</ele>
        <time>2021-08-03T10:52:58Z</time>
      </trkpt>
      <trkpt lat="46.19452" lon="-1.19894">
        <ele>6.87</ele>
        <time>2021-08-03T10:53:03Z</time>
      </trkpt>
      <trkpt lat="46.19432" lon="-1.19898">
        <ele>6.39</ele>
        <time>2021-08-03T10:53:21Z</time>
      </trkpt>
      <trkpt lat="46.1941" lon="-1.19906">
        <ele>7.35</ele>
        <time>2021-08-03T10:53:41Z</time>
      </trkpt>
      <trkpt lat="46.19388" lon="-1.19913">
        <ele>7.83</ele>
        <time>2021-08-03T10:54:00Z</time>
      </trkpt>
      <trkpt lat="46.19372" lon="-1.19927">
        <ele>6.87</ele>
        <time>2021-08-03T10:54:18Z</time>
      </trkpt>
      <trkpt lat="46.19368" lon="-1.19926">
        <ele>6.87</ele>
        <time>2021-08-03T10:54:35Z</time>
      </trkpt>
      <trkpt lat="46.19348" lon="-1.19938">
        <ele>5.91</ele>
        <time>2021-08-03T10:54:54Z</time>
      </trkpt>
      <trkpt lat="46.19345" lon="-1.19939">
        <ele>5.91</ele>
        <time>2021-08-03T10:54:57Z</time>
      </trkpt>
      <trkpt lat="46.19341" lon="-1.19942">
        <ele>5.91</ele>
        <time>2021-08-03T10:55:01Z</time>
      </trkpt>
      <trkpt lat="46.19331" lon="-1.19949">
        <ele>5.42</ele>
        <time>2021-08-03T10:55:15Z</time>
      </trkpt>
      <trkpt lat="46.19324" lon="-1.1995">
        <ele>4.94</ele>
        <time>2021-08-03T10:55:21Z</time>
      </trkpt>
      <trkpt lat="46.19317" lon="-1.19951">
        <ele>4.94</ele>
        <time>2021-08-03T10:55:38Z</time>
      </trkpt>
      <trkpt lat="46.19302" lon="-1.19963">
        <ele>4.94</ele>
        <time>2021-08-03T10:55:53Z</time>
      </trkpt>
      <trkpt lat="46.1928" lon="-1.19975">
        <ele>4.94</ele>
        <time>2021-08-03T10:56:12Z</time>
      </trkpt>
      <trkpt lat="46.19261" lon="-1.19984">
        <ele>5.42</ele>
        <time>2021-08-03T10:56:29Z</time>
      </trkpt>
      <trkpt lat="46.19253" lon="-1.19987">
        <ele>5.91</ele>
        <time>2021-08-03T10:56:37Z</time>
      </trkpt>
      <trkpt lat="46.19236" lon="-1.19997">
        <ele>5.42</ele>
        <time>2021-08-03T10:56:54Z</time>
      </trkpt>
      <trkpt lat="46.19222" lon="-1.20004">
        <ele>5.42</ele>
        <time>2021-08-03T10:57:10Z</time>
      </trkpt>
      <trkpt lat="46.19202" lon="-1.20018">
        <ele>5.91</ele>
        <time>2021-08-03T10:57:30Z</time>
      </trkpt>
      <trkpt lat="46.19182" lon="-1.2003">
        <ele>5.91</ele>
        <time>2021-08-03T10:57:47Z</time>
      </trkpt>
      <trkpt lat="46.19161" lon="-1.20042">
        <ele>5.91</ele>
        <time>2021-08-03T10:58:05Z</time>
      </trkpt>
      <trkpt lat="46.19155" lon="-1.20045">
        <ele>5.42</ele>
        <time>2021-08-03T10:58:18Z</time>
      </trkpt>
      <trkpt lat="46.19135" lon="-1.20059">
        <ele>5.91</ele>
        <time>2021-08-03T10:58:34Z</time>
      </trkpt>
      <trkpt lat="46.19115" lon="-1.20069">
        <ele>5.91</ele>
        <time>2021-08-03T10:58:52Z</time>
      </trkpt>
      <trkpt lat="46.19095" lon="-1.20084">
        <ele>5.91</ele>
        <time>2021-08-03T10:59:11Z</time>
      </trkpt>
      <trkpt lat="46.19085" lon="-1.20082">
        <ele>5.42</ele>
        <time>2021-08-03T10:59:26Z</time>
      </trkpt>
      <trkpt lat="46.19084" lon="-1.2008">
        <ele>5.91</ele>
        <time>2021-08-03T10:59:43Z</time>
      </trkpt>
      <trkpt lat="46.19084" lon="-1.20076">
        <ele>5.91</ele>
        <time>2021-08-03T11:00:16Z</time>
      </trkpt>
      <trkpt lat="46.19084" lon="-1.20077">
        <ele>5.91</ele>
        <time>2021-08-03T11:00:52Z</time>
      </trkpt>
      <trkpt lat="46.19084" lon="-1.20077">
        <ele>5.91</ele>
        <time>2021-08-03T11:01:28Z</time>
      </trkpt>
      <trkpt lat="46.19087" lon="-1.20079">
        <ele>6.39</ele>
        <time>2021-08-03T11:02:03Z</time>
      </trkpt>
      <trkpt lat="46.19089" lon="-1.20075">
        <ele>6.39</ele>
        <time>2021-08-03T11:02:16Z</time>
      </trkpt>
      <trkpt lat="46.19087" lon="-1.2008">
        <ele>6.39</ele>
        <time>2021-08-03T11:02:38Z</time>
      </trkpt>
      <trkpt lat="46.19093" lon="-1.20091">
        <ele>7.83</ele>
        <time>2021-08-03T11:02:54Z</time>
      </trkpt>
      <trkpt lat="46.19093" lon="-1.20091">
        <ele>6.87</ele>
        <time>2021-08-03T11:03:18Z</time>
      </trkpt>
      <trkpt lat="46.1909" lon="-1.20091">
        <ele>7.35</ele>
        <time>2021-08-03T11:03:31Z</time>
      </trkpt>
      <trkpt lat="46.19075" lon="-1.20101">
        <ele>8.79</ele>
        <time>2021-08-03T11:03:46Z</time>
      </trkpt>
      <trkpt lat="46.19074" lon="-1.20101">
        <ele>8.31</ele>
        <time>2021-08-03T11:03:47Z</time>
      </trkpt>
      <trkpt lat="46.19069" lon="-1.20107">
        <ele>7.83</ele>
        <time>2021-08-03T11:03:54Z</time>
      </trkpt>
      <trkpt lat="46.19063" lon="-1.20109">
        <ele>8.31</ele>
        <time>2021-08-03T11:04:00Z</time>
      </trkpt>
      <trkpt lat="46.19059" lon="-1.20111">
        <ele>7.83</ele>
        <time>2021-08-03T11:04:04Z</time>
      </trkpt>
      <trkpt lat="46.19041" lon="-1.20126">
        <ele>7.83</ele>
        <time>2021-08-03T11:04:23Z</time>
      </trkpt>
      <trkpt lat="46.19039" lon="-1.2013">
        <ele>7.35</ele>
        <time>2021-08-03T11:04:36Z</time>
      </trkpt>
      <trkpt lat="46.19041" lon="-1.20128">
        <ele>7.35</ele>
        <time>2021-08-03T11:04:51Z</time>
      </trkpt>
      <trkpt lat="46.19039" lon="-1.20129">
        <ele>7.35</ele>
        <time>2021-08-03T11:05:11Z</time>
      </trkpt>
      <trkpt lat="46.19037" lon="-1.20126">
        <ele>6.39</ele>
        <time>2021-08-03T11:05:24Z</time>
      </trkpt>
      <trkpt lat="46.19036" lon="-1.20127">
        <ele>5.91</ele>
        <time>2021-08-03T11:05:58Z</time>
      </trkpt>
      <trkpt lat="46.19037" lon="-1.20128">
        <ele>6.39</ele>
        <time>2021-08-03T11:06:34Z</time>
      </trkpt>
      <trkpt lat="46.19038" lon="-1.20128">
        <ele>5.91</ele>
        <time>2021-08-03T11:07:11Z</time>
      </trkpt>
      <trkpt lat="46.19038" lon="-1.20127">
        <ele>6.39</ele>
        <time>2021-08-03T11:07:42Z</time>
      </trkpt>
      <trkpt lat="46.19037" lon="-1.20125">
        <ele>6.39</ele>
        <time>2021-08-03T11:08:03Z</time>
      </trkpt>
      <trkpt lat="46.19037" lon="-1.20125">
        <ele>6.39</ele>
        <time>2021-08-03T11:08:32Z</time>
      </trkpt>
      <trkpt lat="46.19037" lon="-1.20125">
        <ele>6.87</ele>
        <time>2021-08-03T11:09:13Z</time>
      </trkpt>
      <trkpt lat="46.19037" lon="-1.20126">
        <ele>6.39</ele>
        <time>2021-08-03T11:09:45Z</time>
      </trkpt>
      <trkpt lat="46.19038" lon="-1.20127">
        <ele>6.39</ele>
        <time>2021-08-03T11:10:27Z</time>
      </trkpt>
      <trkpt lat="46.19037" lon="-1.20127">
        <ele>5.91</ele>
        <time>2021-08-03T11:11:01Z</time>
      </trkpt>
      <trkpt lat="46.19037" lon="-1.20127">
        <ele>6.39</ele>
        <time>2021-08-03T11:11:34Z</time>
      </trkpt>
      <trkpt lat="46.19037" lon="-1.20128">
        <ele>6.39</ele>
        <time>2021-08-03T11:12:07Z</time>
      </trkpt>
      <trkpt lat="46.19037" lon="-1.20128">
        <ele>6.39</ele>
        <time>2021-08-03T11:12:40Z</time>
      </trkpt>
      <trkpt lat="46.19037" lon="-1.20128">
        <ele>5.91</ele>
        <time>2021-08-03T11:13:06Z</time>
      </trkpt>
      <trkpt lat="46.19037" lon="-1.20127">
        <ele>6.39</ele>
        <time>2021-08-03T11:13:39Z</time>
      </trkpt>
      <trkpt lat="46.19038" lon="-1.20128">
        <ele>6.39</ele>
        <time>2021-08-03T11:14:23Z</time>
      </trkpt>
      <trkpt lat="46.19037" lon="-1.20128">
        <ele>5.91</ele>
        <time>2021-08-03T11:15:02Z</time>
      </trkpt>
      <trkpt lat="46.19038" lon="-1.20128">
        <ele>5.91</ele>
        <time>2021-08-03T11:15:32Z</time>
      </trkpt>
      <trkpt lat="46.19037" lon="-1.20128">
        <ele>6.39</ele>
        <time>2021-08-03T11:16:19Z</time>
      </trkpt>
      <trkpt lat="46.19038" lon="-1.20127">
        <ele>5.91</ele>
        <time>2021-08-03T11:16:58Z</time>
      </trkpt>
      <trkpt lat="46.19038" lon="-1.20127">
        <ele>5.91</ele>
        <time>2021-08-03T11:17:32Z</time>
      </trkpt>
      <trkpt lat="46.19038" lon="-1.20125">
        <ele>6.39</ele>
        <time>2021-08-03T11:18:01Z</time>
      </trkpt>
      <trkpt lat="46.19038" lon="-1.20125">
        <ele>6.39</ele>
        <time>2021-08-03T11:18:39Z</time>
      </trkpt>
      <trkpt lat="46.19038" lon="-1.20125">
        <ele>6.39</ele>
        <time>2021-08-03T11:19:05Z</time>
      </trkpt>
      <trkpt lat="46.19038" lon="-1.20126">
        <ele>6.39</ele>
        <time>2021-08-03T11:19:42Z</time>
      </trkpt>
      <trkpt lat="46.19038" lon="-1.20125">
        <ele>6.87</ele>
        <time>2021-08-03T11:20:18Z</time>
      </trkpt>
      <trkpt lat="46.19038" lon="-1.20125">
        <ele>6.87</ele>
        <time>2021-08-03T11:20:59Z</time>
      </trkpt>
      <trkpt lat="46.19038" lon="-1.20127">
        <ele>6.39</ele>
        <time>2021-08-03T11:21:36Z</time>
      </trkpt>
      <trkpt lat="46.19038" lon="-1.20127">
        <ele>6.39</ele>
        <time>2021-08-03T11:22:04Z</time>
      </trkpt>
      <trkpt lat="46.19038" lon="-1.20127">
        <ele>6.39</ele>
        <time>2021-08-03T11:22:43Z</time>
      </trkpt>
      <trkpt lat="46.19038" lon="-1.20127">
        <ele>5.91</ele>
        <time>2021-08-03T11:23:20Z</time>
      </trkpt>
      <trkpt lat="46.19038" lon="-1.20127">
        <ele>6.87</ele>
        <time>2021-08-03T11:23:47Z</time>
      </trkpt>
      <trkpt lat="46.19038" lon="-1.20127">
        <ele>6.87</ele>
        <time>2021-08-03T11:24:22Z</time>
      </trkpt>
      <trkpt lat="46.19037" lon="-1.20127">
        <ele>6.87</ele>
        <time>2021-08-03T11:24:52Z</time>
      </trkpt>
      <trkpt lat="46.19038" lon="-1.20127">
        <ele>6.87</ele>
        <time>2021-08-03T11:25:16Z</time>
      </trkpt>
      <trkpt lat="46.19038" lon="-1.20127">
        <ele>6.39</ele>
        <time>2021-08-03T11:25:52Z</time>
      </trkpt>
      <trkpt lat="46.19038" lon="-1.20127">
        <ele>6.39</ele>
        <time>2021-08-03T11:26:23Z</time>
      </trkpt>
      <trkpt lat="46.19038" lon="-1.20128">
        <ele>6.39</ele>
        <time>2021-08-03T11:27:12Z</time>
      </trkpt>
      <trkpt lat="46.19038" lon="-1.20128">
        <ele>6.39</ele>
        <time>2021-08-03T11:27:47Z</time>
      </trkpt>
      <trkpt lat="46.19038" lon="-1.20127">
        <ele>6.87</ele>
        <time>2021-08-03T11:28:23Z</time>
      </trkpt>
      <trkpt lat="46.19038" lon="-1.20127">
        <ele>6.87</ele>
        <time>2021-08-03T11:28:54Z</time>
      </trkpt>
      <trkpt lat="46.19038" lon="-1.20127">
        <ele>6.87</ele>
        <time>2021-08-03T11:29:37Z</time>
      </trkpt>
      <trkpt lat="46.19038" lon="-1.20127">
        <ele>6.87</ele>
        <time>2021-08-03T11:30:11Z</time>
      </trkpt>
      <trkpt lat="46.19039" lon="-1.20127">
        <ele>6.87</ele>
        <time>2021-08-03T11:30:52Z</time>
      </trkpt>
      <trkpt lat="46.19038" lon="-1.20127">
        <ele>6.39</ele>
        <time>2021-08-03T11:31:26Z</time>
      </trkpt>
      <trkpt lat="46.19038" lon="-1.20127">
        <ele>7.83</ele>
        <time>2021-08-03T11:32:07Z</time>
      </trkpt>
      <trkpt lat="46.19038" lon="-1.20127">
        <ele>7.83</ele>
        <time>2021-08-03T11:32:29Z</time>
      </trkpt>
      <trkpt lat="46.19039" lon="-1.20127">
        <ele>7.83</ele>
        <time>2021-08-03T11:32:41Z</time>
      </trkpt>
      <trkpt lat="46.19039" lon="-1.20126">
        <ele>8.31</ele>
        <time>2021-08-03T11:33:09Z</time>
      </trkpt>
      <trkpt lat="46.19039" lon="-1.20126">
        <ele>7.83</ele>
        <time>2021-08-03T11:33:34Z</time>
      </trkpt>
      <trkpt lat="46.19039" lon="-1.20127">
        <ele>7.83</ele>
        <time>2021-08-03T11:33:50Z</time>
      </trkpt>
      <trkpt lat="46.19039" lon="-1.20128">
        <ele>7.83</ele>
        <time>2021-08-03T11:34:17Z</time>
      </trkpt>
      <trkpt lat="46.19039" lon="-1.20127">
        <ele>7.83</ele>
        <time>2021-08-03T11:34:41Z</time>
      </trkpt>
      <trkpt lat="46.19038" lon="-1.20122">
        <ele>8.31</ele>
        <time>2021-08-03T11:34:55Z</time>
      </trkpt>
      <trkpt lat="46.19041" lon="-1.20122">
        <ele>7.83</ele>
        <time>2021-08-03T11:35:26Z</time>
      </trkpt>
      <trkpt lat="46.19039" lon="-1.20124">
        <ele>8.31</ele>
        <time>2021-08-03T11:35:58Z</time>
      </trkpt>
      <trkpt lat="46.19039" lon="-1.20123">
        <ele>7.83</ele>
        <time>2021-08-03T11:36:25Z</time>
      </trkpt>
      <trkpt lat="46.19041" lon="-1.20121">
        <ele>7.83</ele>
        <time>2021-08-03T11:36:56Z</time>
      </trkpt>
      <trkpt lat="46.19044" lon="-1.20119">
        <ele>7.83</ele>
        <time>2021-08-03T11:37:00Z</time>
      </trkpt>
      <trkpt lat="46.19058" lon="-1.20107">
        <ele>7.83</ele>
        <time>2021-08-03T11:37:16Z</time>
      </trkpt>
      <trkpt lat="46.1906" lon="-1.20106">
        <ele>7.83</ele>
        <time>2021-08-03T11:37:18Z</time>
      </trkpt>
      <trkpt lat="46.19063" lon="-1.20099">
        <ele>7.35</ele>
        <time>2021-08-03T11:37:25Z</time>
      </trkpt>
      <trkpt lat="46.19064" lon="-1.20091">
        <ele>6.39</ele>
        <time>2021-08-03T11:37:30Z</time>
      </trkpt>
      <trkpt lat="46.19071" lon="-1.20071">
        <ele>6.39</ele>
        <time>2021-08-03T11:37:44Z</time>
      </trkpt>
      <trkpt lat="46.19073" lon="-1.20067">
        <ele>6.39</ele>
        <time>2021-08-03T11:37:48Z</time>
      </trkpt>
      <trkpt lat="46.19074" lon="-1.20057">
        <ele>5.42</ele>
        <time>2021-08-03T11:37:55Z</time>
      </trkpt>
      <trkpt lat="46.19063" lon="-1.20031">
        <ele>3.98</ele>
        <time>2021-08-03T11:38:16Z</time>
      </trkpt>
      <trkpt lat="46.19062" lon="-1.20028">
        <ele>3.98</ele>
        <time>2021-08-03T11:38:18Z</time>
      </trkpt>
      <trkpt lat="46.19049" lon="-1.19996">
        <ele>3.5</ele>
        <time>2021-08-03T11:38:40Z</time>
      </trkpt>
      <trkpt lat="46.19038" lon="-1.19974">
        <ele>3.5</ele>
        <time>2021-08-03T11:38:58Z</time>
      </trkpt>
      <trkpt lat="46.19035" lon="-1.19956">
        <ele>3.5</ele>
        <time>2021-08-03T11:39:12Z</time>
      </trkpt>
      <trkpt lat="46.19035" lon="-1.19954">
        <ele>3.5</ele>
        <time>2021-08-03T11:39:29Z</time>
      </trkpt>
      <trkpt lat="46.19036" lon="-1.19954">
        <ele>3.02</ele>
        <time>2021-08-03T11:39:53Z</time>
      </trkpt>
      <trkpt lat="46.19033" lon="-1.19956">
        <ele>3.5</ele>
        <time>2021-08-03T11:40:08Z</time>
      </trkpt>
      <trkpt lat="46.1903" lon="-1.19947">
        <ele>3.98</ele>
        <time>2021-08-03T11:40:24Z</time>
      </trkpt>
      <trkpt lat="46.1903" lon="-1.19948">
        <ele>3.5</ele>
        <time>2021-08-03T11:40:42Z</time>
      </trkpt>
      <trkpt lat="46.19024" lon="-1.19941">
        <ele>3.98</ele>
        <time>2021-08-03T11:40:54Z</time>
      </trkpt>
      <trkpt lat="46.19011" lon="-1.19918">
        <ele>3.98</ele>
        <time>2021-08-03T11:41:14Z</time>
      </trkpt>
      <trkpt lat="46.1901" lon="-1.19915">
        <ele>3.98</ele>
        <time>2021-08-03T11:41:17Z</time>
      </trkpt>
      <trkpt lat="46.18997" lon="-1.19893">
        <ele>3.5</ele>
        <time>2021-08-03T11:41:35Z</time>
      </trkpt>
      <trkpt lat="46.18986" lon="-1.19872">
        <ele>4.46</ele>
        <time>2021-08-03T11:41:51Z</time>
      </trkpt>
      <trkpt lat="46.18977" lon="-1.19858">
        <ele>3.98</ele>
        <time>2021-08-03T11:42:03Z</time>
      </trkpt>
      <trkpt lat="46.18967" lon="-1.19837">
        <ele>4.46</ele>
        <time>2021-08-03T11:42:19Z</time>
      </trkpt>
      <trkpt lat="46.18961" lon="-1.19826">
        <ele>4.46</ele>
        <time>2021-08-03T11:42:33Z</time>
      </trkpt>
      <trkpt lat="46.18952" lon="-1.19805">
        <ele>4.94</ele>
        <time>2021-08-03T11:42:51Z</time>
      </trkpt>
      <trkpt lat="46.18951" lon="-1.19805">
        <ele>3.98</ele>
        <time>2021-08-03T11:43:09Z</time>
      </trkpt>
      <trkpt lat="46.18952" lon="-1.19806">
        <ele>4.46</ele>
        <time>2021-08-03T11:43:25Z</time>
      </trkpt>
      <trkpt lat="46.18951" lon="-1.19805">
        <ele>3.98</ele>
        <time>2021-08-03T11:43:54Z</time>
      </trkpt>
      <trkpt lat="46.18954" lon="-1.19804">
        <ele>4.46</ele>
        <time>2021-08-03T11:44:19Z</time>
      </trkpt>
      <trkpt lat="46.18953" lon="-1.19803">
        <ele>4.46</ele>
        <time>2021-08-03T11:44:41Z</time>
      </trkpt>
      <trkpt lat="46.18952" lon="-1.198">
        <ele>3.5</ele>
        <time>2021-08-03T11:44:55Z</time>
      </trkpt>
      <trkpt lat="46.18952" lon="-1.19801">
        <ele>3.5</ele>
        <time>2021-08-03T11:45:32Z</time>
      </trkpt>
      <trkpt lat="46.18955" lon="-1.19803">
        <ele>3.98</ele>
        <time>2021-08-03T11:45:54Z</time>
      </trkpt>
      <trkpt lat="46.18952" lon="-1.19801">
        <ele>3.98</ele>
        <time>2021-08-03T11:46:14Z</time>
      </trkpt>
      <trkpt lat="46.1895" lon="-1.19791">
        <ele>3.98</ele>
        <time>2021-08-03T11:46:30Z</time>
      </trkpt>
      <trkpt lat="46.18946" lon="-1.19783">
        <ele>3.98</ele>
        <time>2021-08-03T11:46:54Z</time>
      </trkpt>
      <trkpt lat="46.18941" lon="-1.19777">
        <ele>4.46</ele>
        <time>2021-08-03T11:47:09Z</time>
      </trkpt>
      <trkpt lat="46.18939" lon="-1.19768">
        <ele>3.98</ele>
        <time>2021-08-03T11:47:35Z</time>
      </trkpt>
      <trkpt lat="46.18931" lon="-1.19741">
        <ele>3.98</ele>
        <time>2021-08-03T11:47:55Z</time>
      </trkpt>
      <trkpt lat="46.1892" lon="-1.19709">
        <ele>3.5</ele>
        <time>2021-08-03T11:48:17Z</time>
      </trkpt>
      <trkpt lat="46.18914" lon="-1.19681">
        <ele>3.5</ele>
        <time>2021-08-03T11:48:36Z</time>
      </trkpt>
      <trkpt lat="46.18911" lon="-1.19676">
        <ele>3.5</ele>
        <time>2021-08-03T11:48:50Z</time>
      </trkpt>
      <trkpt lat="46.1891" lon="-1.19675">
        <ele>3.5</ele>
        <time>2021-08-03T11:49:08Z</time>
      </trkpt>
      <trkpt lat="46.1891" lon="-1.19674">
        <ele>3.5</ele>
        <time>2021-08-03T11:49:31Z</time>
      </trkpt>
      <trkpt lat="46.18911" lon="-1.19674">
        <ele>3.5</ele>
        <time>2021-08-03T11:49:51Z</time>
      </trkpt>
      <trkpt lat="46.18908" lon="-1.19658">
        <ele>3.98</ele>
        <time>2021-08-03T11:50:06Z</time>
      </trkpt>
      <trkpt lat="46.18908" lon="-1.19652">
        <ele>3.5</ele>
        <time>2021-08-03T11:50:17Z</time>
      </trkpt>
      <trkpt lat="46.18906" lon="-1.19649">
        <ele>3.5</ele>
        <time>2021-08-03T11:50:39Z</time>
      </trkpt>
      <trkpt lat="46.18898" lon="-1.1962">
        <ele>3.98</ele>
        <time>2021-08-03T11:50:59Z</time>
      </trkpt>
      <trkpt lat="46.18891" lon="-1.19609">
        <ele>3.98</ele>
        <time>2021-08-03T11:51:18Z</time>
      </trkpt>
      <trkpt lat="46.18891" lon="-1.19607">
        <ele>3.5</ele>
        <time>2021-08-03T11:51:41Z</time>
      </trkpt>
      <trkpt lat="46.1889" lon="-1.196">
        <ele>3.98</ele>
        <time>2021-08-03T11:51:46Z</time>
      </trkpt>
      <trkpt lat="46.18878" lon="-1.19571">
        <ele>3.98</ele>
        <time>2021-08-03T11:52:06Z</time>
      </trkpt>
      <trkpt lat="46.18868" lon="-1.19548">
        <ele>3.5</ele>
        <time>2021-08-03T11:52:23Z</time>
      </trkpt>
      <trkpt lat="46.18859" lon="-1.19525">
        <ele>3.5</ele>
        <time>2021-08-03T11:52:41Z</time>
      </trkpt>
      <trkpt lat="46.18851" lon="-1.19503">
        <ele>3.5</ele>
        <time>2021-08-03T11:52:58Z</time>
      </trkpt>
      <trkpt lat="46.1885" lon="-1.19502">
        <ele>3.5</ele>
        <time>2021-08-03T11:53:06Z</time>
      </trkpt>
      <trkpt lat="46.18844" lon="-1.19468">
        <ele>3.5</ele>
        <time>2021-08-03T11:53:27Z</time>
      </trkpt>
      <trkpt lat="46.18834" lon="-1.19439">
        <ele>3.02</ele>
        <time>2021-08-03T11:53:46Z</time>
      </trkpt>
      <trkpt lat="46.18822" lon="-1.19419">
        <ele>3.02</ele>
        <time>2021-08-03T11:54:04Z</time>
      </trkpt>
      <trkpt lat="46.18806" lon="-1.19398">
        <ele>3.02</ele>
        <time>2021-08-03T11:54:23Z</time>
      </trkpt>
      <trkpt lat="46.18789" lon="-1.19377">
        <ele>3.5</ele>
        <time>2021-08-03T11:54:43Z</time>
      </trkpt>
      <trkpt lat="46.18786" lon="-1.1937">
        <ele>3.5</ele>
        <time>2021-08-03T11:54:48Z</time>
      </trkpt>
      <trkpt lat="46.18776" lon="-1.19346">
        <ele>3.98</ele>
        <time>2021-08-03T11:55:07Z</time>
      </trkpt>
      <trkpt lat="46.18769" lon="-1.1933">
        <ele>4.94</ele>
        <time>2021-08-03T11:55:19Z</time>
      </trkpt>
      <trkpt lat="46.18754" lon="-1.19305">
        <ele>3.5</ele>
        <time>2021-08-03T11:55:39Z</time>
      </trkpt>
      <trkpt lat="46.18733" lon="-1.19292">
        <ele>4.46</ele>
        <time>2021-08-03T11:55:58Z</time>
      </trkpt>
      <trkpt lat="46.18732" lon="-1.19292">
        <ele>3.5</ele>
        <time>2021-08-03T11:55:59Z</time>
      </trkpt>
      <trkpt lat="46.18728" lon="-1.19294">
        <ele>3.98</ele>
        <time>2021-08-03T11:56:03Z</time>
      </trkpt>
      <trkpt lat="46.1871" lon="-1.1932">
        <ele>3.02</ele>
        <time>2021-08-03T11:56:24Z</time>
      </trkpt>
      <trkpt lat="46.18694" lon="-1.19345">
        <ele>2.54</ele>
        <time>2021-08-03T11:56:44Z</time>
      </trkpt>
      <trkpt lat="46.18677" lon="-1.1936">
        <ele>2.54</ele>
        <time>2021-08-03T11:57:02Z</time>
      </trkpt>
      <trkpt lat="46.18659" lon="-1.19363">
        <ele>3.02</ele>
        <time>2021-08-03T11:57:20Z</time>
      </trkpt>
      <trkpt lat="46.18636" lon="-1.19352">
        <ele>3.02</ele>
        <time>2021-08-03T11:57:40Z</time>
      </trkpt>
      <trkpt lat="46.18625" lon="-1.1933">
        <ele>3.02</ele>
        <time>2021-08-03T11:57:59Z</time>
      </trkpt>
      <trkpt lat="46.18611" lon="-1.19311">
        <ele>3.02</ele>
        <time>2021-08-03T11:58:16Z</time>
      </trkpt>
      <trkpt lat="46.18592" lon="-1.19292">
        <ele>3.02</ele>
        <time>2021-08-03T11:58:34Z</time>
      </trkpt>
      <trkpt lat="46.18574" lon="-1.19279">
        <ele>2.54</ele>
        <time>2021-08-03T11:58:52Z</time>
      </trkpt>
      <trkpt lat="46.18563" lon="-1.19265">
        <ele>3.02</ele>
        <time>2021-08-03T11:59:10Z</time>
      </trkpt>
      <trkpt lat="46.18551" lon="-1.19247">
        <ele>2.54</ele>
        <time>2021-08-03T11:59:25Z</time>
      </trkpt>
      <trkpt lat="46.18536" lon="-1.19216">
        <ele>3.02</ele>
        <time>2021-08-03T11:59:45Z</time>
      </trkpt>
      <trkpt lat="46.18526" lon="-1.19191">
        <ele>3.02</ele>
        <time>2021-08-03T12:00:01Z</time>
      </trkpt>
      <trkpt lat="46.18517" lon="-1.19165">
        <ele>3.02</ele>
        <time>2021-08-03T12:00:20Z</time>
      </trkpt>
      <trkpt lat="46.18516" lon="-1.19162">
        <ele>3.02</ele>
        <time>2021-08-03T12:00:22Z</time>
      </trkpt>
      <trkpt lat="46.18522" lon="-1.1915">
        <ele>3.5</ele>
        <time>2021-08-03T12:00:39Z</time>
      </trkpt>
      <trkpt lat="46.18527" lon="-1.19144">
        <ele>3.5</ele>
        <time>2021-08-03T12:01:05Z</time>
      </trkpt>
      <trkpt lat="46.18542" lon="-1.19134">
        <ele>3.5</ele>
        <time>2021-08-03T12:01:20Z</time>
      </trkpt>
      <trkpt lat="46.18555" lon="-1.19126">
        <ele>3.5</ele>
        <time>2021-08-03T12:01:33Z</time>
      </trkpt>
      <trkpt lat="46.18559" lon="-1.19125">
        <ele>3.98</ele>
        <time>2021-08-03T12:01:37Z</time>
      </trkpt>
      <trkpt lat="46.18577" lon="-1.19109">
        <ele>4.94</ele>
        <time>2021-08-03T12:01:55Z</time>
      </trkpt>
      <trkpt lat="46.18597" lon="-1.19104">
        <ele>5.42</ele>
        <time>2021-08-03T12:02:13Z</time>
      </trkpt>
      <trkpt lat="46.18616" lon="-1.19094">
        <ele>6.39</ele>
        <time>2021-08-03T12:02:30Z</time>
      </trkpt>
      <trkpt lat="46.18625" lon="-1.1909">
        <ele>6.39</ele>
        <time>2021-08-03T12:02:39Z</time>
      </trkpt>
      <trkpt lat="46.18631" lon="-1.19088">
        <ele>6.39</ele>
        <time>2021-08-03T12:02:44Z</time>
      </trkpt>
      <trkpt lat="46.18637" lon="-1.19082">
        <ele>6.87</ele>
        <time>2021-08-03T12:02:51Z</time>
      </trkpt>
      <trkpt lat="46.18648" lon="-1.1908">
        <ele>6.87</ele>
        <time>2021-08-03T12:03:04Z</time>
      </trkpt>
      <trkpt lat="46.18658" lon="-1.19073">
        <ele>6.87</ele>
        <time>2021-08-03T12:03:13Z</time>
      </trkpt>
      <trkpt lat="46.18676" lon="-1.19065">
        <ele>6.87</ele>
        <time>2021-08-03T12:03:30Z</time>
      </trkpt>
      <trkpt lat="46.18683" lon="-1.19065">
        <ele>7.35</ele>
        <time>2021-08-03T12:03:36Z</time>
      </trkpt>
      <trkpt lat="46.18697" lon="-1.19063">
        <ele>7.35</ele>
        <time>2021-08-03T12:03:47Z</time>
      </trkpt>
      <trkpt lat="46.18702" lon="-1.19066">
        <ele>7.35</ele>
        <time>2021-08-03T12:03:51Z</time>
      </trkpt>
      <trkpt lat="46.18722" lon="-1.19063">
        <ele>8.31</ele>
        <time>2021-08-03T12:04:07Z</time>
      </trkpt>
      <trkpt lat="46.18743" lon="-1.19055">
        <ele>8.31</ele>
        <time>2021-08-03T12:04:28Z</time>
      </trkpt>
      <trkpt lat="46.18763" lon="-1.19048">
        <ele>9.75</ele>
        <time>2021-08-03T12:04:47Z</time>
      </trkpt>
      <trkpt lat="46.18778" lon="-1.19036">
        <ele>10.23</ele>
        <time>2021-08-03T12:05:03Z</time>
      </trkpt>
      <trkpt lat="46.18793" lon="-1.19026">
        <ele>10.71</ele>
        <time>2021-08-03T12:05:18Z</time>
      </trkpt>
      <trkpt lat="46.18808" lon="-1.19017">
        <ele>11.67</ele>
        <time>2021-08-03T12:05:35Z</time>
      </trkpt>
      <trkpt lat="46.18819" lon="-1.19007">
        <ele>12.63</ele>
        <time>2021-08-03T12:05:50Z</time>
      </trkpt>
      <trkpt lat="46.18834" lon="-1.18993">
        <ele>13.6</ele>
        <time>2021-08-03T12:06:06Z</time>
      </trkpt>
      <trkpt lat="46.18848" lon="-1.18976">
        <ele>14.56</ele>
        <time>2021-08-03T12:06:23Z</time>
      </trkpt>
      <trkpt lat="46.1886" lon="-1.18967">
        <ele>15.04</ele>
        <time>2021-08-03T12:06:37Z</time>
      </trkpt>
      <trkpt lat="46.18877" lon="-1.18953">
        <ele>16</ele>
        <time>2021-08-03T12:06:54Z</time>
      </trkpt>
      <trkpt lat="46.18888" lon="-1.18953">
        <ele>16.48</ele>
        <time>2021-08-03T12:07:09Z</time>
      </trkpt>
      <trkpt lat="46.18888" lon="-1.18951">
        <ele>16.48</ele>
        <time>2021-08-03T12:07:13Z</time>
      </trkpt>
      <trkpt lat="46.1889" lon="-1.18949">
        <ele>16</ele>
        <time>2021-08-03T12:07:15Z</time>
      </trkpt>
      <trkpt lat="46.18892" lon="-1.18946">
        <ele>16.48</ele>
        <time>2021-08-03T12:07:18Z</time>
      </trkpt>
      <trkpt lat="46.1891" lon="-1.1893">
        <ele>16.96</ele>
        <time>2021-08-03T12:07:36Z</time>
      </trkpt>
      <trkpt lat="46.18926" lon="-1.18916">
        <ele>17.44</ele>
        <time>2021-08-03T12:07:53Z</time>
      </trkpt>
      <trkpt lat="46.18946" lon="-1.18905">
        <ele>17.92</ele>
        <time>2021-08-03T12:08:11Z</time>
      </trkpt>
      <trkpt lat="46.18955" lon="-1.18895">
        <ele>17.92</ele>
        <time>2021-08-03T12:08:21Z</time>
      </trkpt>
      <trkpt lat="46.18957" lon="-1.18893">
        <ele>17.92</ele>
        <time>2021-08-03T12:08:23Z</time>
      </trkpt>
      <trkpt lat="46.18972" lon="-1.18879">
        <ele>18.88</ele>
        <time>2021-08-03T12:08:39Z</time>
      </trkpt>
      <trkpt lat="46.18973" lon="-1.18879">
        <ele>18.88</ele>
        <time>2021-08-03T12:08:40Z</time>
      </trkpt>
      <trkpt lat="46.1898" lon="-1.18874">
        <ele>18.88</ele>
        <time>2021-08-03T12:08:47Z</time>
      </trkpt>
      <trkpt lat="46.18996" lon="-1.18862">
        <ele>19.36</ele>
        <time>2021-08-03T12:09:03Z</time>
      </trkpt>
      <trkpt lat="46.19015" lon="-1.18846">
        <ele>19.84</ele>
        <time>2021-08-03T12:09:21Z</time>
      </trkpt>
      <trkpt lat="46.19033" lon="-1.18832">
        <ele>19.84</ele>
        <time>2021-08-03T12:09:40Z</time>
      </trkpt>
      <trkpt lat="46.19037" lon="-1.18828">
        <ele>19.84</ele>
        <time>2021-08-03T12:09:44Z</time>
      </trkpt>
      <trkpt lat="46.19046" lon="-1.1882">
        <ele>20.32</ele>
        <time>2021-08-03T12:09:53Z</time>
      </trkpt>
      <trkpt lat="46.19063" lon="-1.18807">
        <ele>20.32</ele>
        <time>2021-08-03T12:10:11Z</time>
      </trkpt>
      <trkpt lat="46.19069" lon="-1.18802">
        <ele>20.32</ele>
        <time>2021-08-03T12:10:17Z</time>
      </trkpt>
      <trkpt lat="46.19088" lon="-1.18785">
        <ele>20.32</ele>
        <time>2021-08-03T12:10:35Z</time>
      </trkpt>
      <trkpt lat="46.19094" lon="-1.1878">
        <ele>19.84</ele>
        <time>2021-08-03T12:10:41Z</time>
      </trkpt>
      <trkpt lat="46.19096" lon="-1.18778">
        <ele>19.84</ele>
        <time>2021-08-03T12:10:43Z</time>
      </trkpt>
      <trkpt lat="46.19107" lon="-1.18773">
        <ele>19.84</ele>
        <time>2021-08-03T12:10:54Z</time>
      </trkpt>
      <trkpt lat="46.19119" lon="-1.18771">
        <ele>20.81</ele>
        <time>2021-08-03T12:11:08Z</time>
      </trkpt>
      <trkpt lat="46.19133" lon="-1.18769">
        <ele>20.32</ele>
        <time>2021-08-03T12:11:24Z</time>
      </trkpt>
      <trkpt lat="46.19139" lon="-1.18762">
        <ele>20.32</ele>
        <time>2021-08-03T12:11:34Z</time>
      </trkpt>
      <trkpt lat="46.19151" lon="-1.18759">
        <ele>19.36</ele>
        <time>2021-08-03T12:11:45Z</time>
      </trkpt>
      <trkpt lat="46.1917" lon="-1.1875">
        <ele>18.4</ele>
        <time>2021-08-03T12:12:03Z</time>
      </trkpt>
      <trkpt lat="46.19189" lon="-1.18738">
        <ele>17.44</ele>
        <time>2021-08-03T12:12:21Z</time>
      </trkpt>
      <trkpt lat="46.19194" lon="-1.18743">
        <ele>17.92</ele>
        <time>2021-08-03T12:12:41Z</time>
      </trkpt>
      <trkpt lat="46.19195" lon="-1.18748">
        <ele>17.44</ele>
        <time>2021-08-03T12:13:08Z</time>
      </trkpt>
      <trkpt lat="46.19195" lon="-1.18744">
        <ele>17.44</ele>
        <time>2021-08-03T12:13:38Z</time>
      </trkpt>
      <trkpt lat="46.19193" lon="-1.18743">
        <ele>16.96</ele>
        <time>2021-08-03T12:14:12Z</time>
      </trkpt>
      <trkpt lat="46.19195" lon="-1.18738">
        <ele>16.96</ele>
        <time>2021-08-03T12:14:46Z</time>
      </trkpt>
      <trkpt lat="46.19199" lon="-1.18738">
        <ele>16.96</ele>
        <time>2021-08-03T12:15:11Z</time>
      </trkpt>
      <trkpt lat="46.19212" lon="-1.18735">
        <ele>16.96</ele>
        <time>2021-08-03T12:15:26Z</time>
      </trkpt>
      <trkpt lat="46.19236" lon="-1.18734">
        <ele>15.04</ele>
        <time>2021-08-03T12:15:47Z</time>
      </trkpt>
      <trkpt lat="46.19252" lon="-1.18743">
        <ele>14.08</ele>
        <time>2021-08-03T12:16:02Z</time>
      </trkpt>
      <trkpt lat="46.19256" lon="-1.18765">
        <ele>13.6</ele>
        <time>2021-08-03T12:16:15Z</time>
      </trkpt>
      <trkpt lat="46.19251" lon="-1.18772">
        <ele>14.56</ele>
        <time>2021-08-03T12:16:33Z</time>
      </trkpt>
      <trkpt lat="46.19253" lon="-1.18768">
        <ele>13.6</ele>
        <time>2021-08-03T12:17:05Z</time>
      </trkpt>
      <trkpt lat="46.19262" lon="-1.18769">
        <ele>13.6</ele>
        <time>2021-08-03T12:17:20Z</time>
      </trkpt>
      <trkpt lat="46.19263" lon="-1.18777">
        <ele>14.08</ele>
        <time>2021-08-03T12:17:31Z</time>
      </trkpt>
      <trkpt lat="46.19264" lon="-1.18778">
        <ele>14.56</ele>
        <time>2021-08-03T12:17:32Z</time>
      </trkpt>
      <trkpt lat="46.19272" lon="-1.18788">
        <ele>13.6</ele>
        <time>2021-08-03T12:17:46Z</time>
      </trkpt>
      <trkpt lat="46.19288" lon="-1.18783">
        <ele>13.12</ele>
        <time>2021-08-03T12:18:02Z</time>
      </trkpt>
      <trkpt lat="46.19301" lon="-1.18794">
        <ele>12.63</ele>
        <time>2021-08-03T12:18:16Z</time>
      </trkpt>
      <trkpt lat="46.19308" lon="-1.18802">
        <ele>13.12</ele>
        <time>2021-08-03T12:18:32Z</time>
      </trkpt>
      <trkpt lat="46.19323" lon="-1.18799">
        <ele>10.71</ele>
        <time>2021-08-03T12:18:50Z</time>
      </trkpt>
      <trkpt lat="46.1933" lon="-1.18812">
        <ele>10.71</ele>
        <time>2021-08-03T12:18:59Z</time>
      </trkpt>
      <trkpt lat="46.19344" lon="-1.18818">
        <ele>10.23</ele>
        <time>2021-08-03T12:19:17Z</time>
      </trkpt>
      <trkpt lat="46.19346" lon="-1.18818">
        <ele>10.23</ele>
        <time>2021-08-03T12:19:18Z</time>
      </trkpt>
      <trkpt lat="46.19357" lon="-1.1882">
        <ele>9.27</ele>
        <time>2021-08-03T12:19:30Z</time>
      </trkpt>
      <trkpt lat="46.19365" lon="-1.18846">
        <ele>8.79</ele>
        <time>2021-08-03T12:19:48Z</time>
      </trkpt>
      <trkpt lat="46.19368" lon="-1.18848">
        <ele>8.79</ele>
        <time>2021-08-03T12:20:01Z</time>
      </trkpt>
      <trkpt lat="46.19371" lon="-1.18848">
        <ele>8.79</ele>
        <time>2021-08-03T12:20:10Z</time>
      </trkpt>
      <trkpt lat="46.19386" lon="-1.18837">
        <ele>7.83</ele>
        <time>2021-08-03T12:20:26Z</time>
      </trkpt>
      <trkpt lat="46.19408" lon="-1.18832">
        <ele>6.39</ele>
        <time>2021-08-03T12:20:46Z</time>
      </trkpt>
      <trkpt lat="46.19431" lon="-1.18823">
        <ele>5.91</ele>
        <time>2021-08-03T12:21:06Z</time>
      </trkpt>
      <trkpt lat="46.19445" lon="-1.18817">
        <ele>4.46</ele>
        <time>2021-08-03T12:21:19Z</time>
      </trkpt>
      <trkpt lat="46.19467" lon="-1.18811">
        <ele>3.98</ele>
        <time>2021-08-03T12:21:39Z</time>
      </trkpt>
      <trkpt lat="46.1947" lon="-1.18819">
        <ele>3.5</ele>
        <time>2021-08-03T12:22:02Z</time>
      </trkpt>
      <trkpt lat="46.19476" lon="-1.18843">
        <ele>3.5</ele>
        <time>2021-08-03T12:22:18Z</time>
      </trkpt>
      <trkpt lat="46.19475" lon="-1.18872">
        <ele>3.98</ele>
        <time>2021-08-03T12:22:36Z</time>
      </trkpt>
      <trkpt lat="46.19478" lon="-1.1889">
        <ele>3.02</ele>
        <time>2021-08-03T12:22:48Z</time>
      </trkpt>
      <trkpt lat="46.19481" lon="-1.18912">
        <ele>3.98</ele>
        <time>2021-08-03T12:23:03Z</time>
      </trkpt>
      <trkpt lat="46.19483" lon="-1.18942">
        <ele>3.5</ele>
        <time>2021-08-03T12:23:23Z</time>
      </trkpt>
      <trkpt lat="46.19489" lon="-1.18966">
        <ele>3.02</ele>
        <time>2021-08-03T12:23:37Z</time>
      </trkpt>
      <trkpt lat="46.19493" lon="-1.18991">
        <ele>3.5</ele>
        <time>2021-08-03T12:23:54Z</time>
      </trkpt>
      <trkpt lat="46.19502" lon="-1.19011">
        <ele>3.5</ele>
        <time>2021-08-03T12:24:11Z</time>
      </trkpt>
      <trkpt lat="46.19517" lon="-1.1903">
        <ele>3.5</ele>
        <time>2021-08-03T12:24:27Z</time>
      </trkpt>
      <trkpt lat="46.1953" lon="-1.19051">
        <ele>3.02</ele>
        <time>2021-08-03T12:24:46Z</time>
      </trkpt>
      <trkpt lat="46.19544" lon="-1.19075">
        <ele>3.98</ele>
        <time>2021-08-03T12:25:04Z</time>
      </trkpt>
      <trkpt lat="46.19555" lon="-1.19094">
        <ele>3.5</ele>
        <time>2021-08-03T12:25:20Z</time>
      </trkpt>
      <trkpt lat="46.19567" lon="-1.19112">
        <ele>3.5</ele>
        <time>2021-08-03T12:25:38Z</time>
      </trkpt>
      <trkpt lat="46.19577" lon="-1.19136">
        <ele>3.5</ele>
        <time>2021-08-03T12:25:56Z</time>
      </trkpt>
      <trkpt lat="46.19587" lon="-1.19158">
        <ele>3.98</ele>
        <time>2021-08-03T12:26:16Z</time>
      </trkpt>
      <trkpt lat="46.19594" lon="-1.19173">
        <ele>3.98</ele>
        <time>2021-08-03T12:26:31Z</time>
      </trkpt>
      <trkpt lat="46.19602" lon="-1.19195">
        <ele>3.98</ele>
        <time>2021-08-03T12:26:49Z</time>
      </trkpt>
      <trkpt lat="46.19607" lon="-1.19207">
        <ele>4.46</ele>
        <time>2021-08-03T12:27:03Z</time>
      </trkpt>
      <trkpt lat="46.19609" lon="-1.19215">
        <ele>4.46</ele>
        <time>2021-08-03T12:27:09Z</time>
      </trkpt>
      <trkpt lat="46.19621" lon="-1.19233">
        <ele>4.46</ele>
        <time>2021-08-03T12:27:25Z</time>
      </trkpt>
      <trkpt lat="46.19621" lon="-1.19235">
        <ele>4.46</ele>
        <time>2021-08-03T12:27:26Z</time>
      </trkpt>
      <trkpt lat="46.19631" lon="-1.19256">
        <ele>5.42</ele>
        <time>2021-08-03T12:27:42Z</time>
      </trkpt>
      <trkpt lat="46.19641" lon="-1.19273">
        <ele>5.91</ele>
        <time>2021-08-03T12:27:57Z</time>
      </trkpt>
      <trkpt lat="46.19649" lon="-1.19295">
        <ele>6.39</ele>
        <time>2021-08-03T12:28:14Z</time>
      </trkpt>
      <trkpt lat="46.19659" lon="-1.1932">
        <ele>7.83</ele>
        <time>2021-08-03T12:28:33Z</time>
      </trkpt>
      <trkpt lat="46.19672" lon="-1.19348">
        <ele>7.83</ele>
        <time>2021-08-03T12:28:53Z</time>
      </trkpt>
      <trkpt lat="46.19683" lon="-1.19373">
        <ele>8.79</ele>
        <time>2021-08-03T12:29:12Z</time>
      </trkpt>
      <trkpt lat="46.19693" lon="-1.19398">
        <ele>8.79</ele>
        <time>2021-08-03T12:29:31Z</time>
      </trkpt>
      <trkpt lat="46.19705" lon="-1.19422">
        <ele>8.79</ele>
        <time>2021-08-03T12:29:50Z</time>
      </trkpt>
      <trkpt lat="46.19716" lon="-1.19446">
        <ele>9.27</ele>
        <time>2021-08-03T12:30:07Z</time>
      </trkpt>
      <trkpt lat="46.19727" lon="-1.19472">
        <ele>9.27</ele>
        <time>2021-08-03T12:30:25Z</time>
      </trkpt>
      <trkpt lat="46.19736" lon="-1.19495">
        <ele>8.79</ele>
        <time>2021-08-03T12:30:41Z</time>
      </trkpt>
      <trkpt lat="46.19744" lon="-1.1952">
        <ele>8.31</ele>
        <time>2021-08-03T12:30:58Z</time>
      </trkpt>
      <trkpt lat="46.19754" lon="-1.1955">
        <ele>8.31</ele>
        <time>2021-08-03T12:31:18Z</time>
      </trkpt>
      <trkpt lat="46.19762" lon="-1.19582">
        <ele>8.31</ele>
        <time>2021-08-03T12:31:39Z</time>
      </trkpt>
      <trkpt lat="46.19771" lon="-1.19609">
        <ele>7.83</ele>
        <time>2021-08-03T12:31:57Z</time>
      </trkpt>
      <trkpt lat="46.19783" lon="-1.19642">
        <ele>6.87</ele>
        <time>2021-08-03T12:32:19Z</time>
      </trkpt>
      <trkpt lat="46.19786" lon="-1.1965">
        <ele>6.87</ele>
        <time>2021-08-03T12:32:25Z</time>
      </trkpt>
      <trkpt lat="46.19794" lon="-1.19679">
        <ele>6.39</ele>
        <time>2021-08-03T12:32:45Z</time>
      </trkpt>
      <trkpt lat="46.19805" lon="-1.19706">
        <ele>5.91</ele>
        <time>2021-08-03T12:33:04Z</time>
      </trkpt>
      <trkpt lat="46.19818" lon="-1.19736">
        <ele>4.46</ele>
        <time>2021-08-03T12:33:24Z</time>
      </trkpt>
      <trkpt lat="46.19831" lon="-1.19761">
        <ele>4.94</ele>
        <time>2021-08-03T12:33:43Z</time>
      </trkpt>
      <trkpt lat="46.19843" lon="-1.19793">
        <ele>4.46</ele>
        <time>2021-08-03T12:34:05Z</time>
      </trkpt>
      <trkpt lat="46.19854" lon="-1.19821">
        <ele>3.5</ele>
        <time>2021-08-03T12:34:26Z</time>
      </trkpt>
      <trkpt lat="46.19864" lon="-1.19848">
        <ele>3.5</ele>
        <time>2021-08-03T12:34:44Z</time>
      </trkpt>
      <trkpt lat="46.19872" lon="-1.19878">
        <ele>3.5</ele>
        <time>2021-08-03T12:35:04Z</time>
      </trkpt>
      <trkpt lat="46.19873" lon="-1.19887">
        <ele>3.5</ele>
        <time>2021-08-03T12:35:10Z</time>
      </trkpt>
      <trkpt lat="46.19865" lon="-1.19906">
        <ele>3.98</ele>
        <time>2021-08-03T12:35:27Z</time>
      </trkpt>
      <trkpt lat="46.19869" lon="-1.19924">
        <ele>4.94</ele>
        <time>2021-08-03T12:35:43Z</time>
      </trkpt>
      <trkpt lat="46.19869" lon="-1.19927">
        <ele>4.94</ele>
        <time>2021-08-03T12:36:14Z</time>
      </trkpt>
      <trkpt lat="46.19869" lon="-1.19926">
        <ele>4.46</ele>
        <time>2021-08-03T12:36:38Z</time>
      </trkpt>
      <trkpt lat="46.19868" lon="-1.19927">
        <ele>4.46</ele>
        <time>2021-08-03T12:36:54Z</time>
      </trkpt>
      <trkpt lat="46.19869" lon="-1.19925">
        <ele>4.46</ele>
        <time>2021-08-03T12:37:16Z</time>
      </trkpt>
      <trkpt lat="46.19869" lon="-1.19925">
        <ele>3.98</ele>
        <time>2021-08-03T12:37:38Z</time>
      </trkpt>
      <trkpt lat="46.19873" lon="-1.19923">
        <ele>4.46</ele>
        <time>2021-08-03T12:37:55Z</time>
      </trkpt>
      <trkpt lat="46.19877" lon="-1.19923">
        <ele>4.46</ele>
        <time>2021-08-03T12:37:59Z</time>
      </trkpt>
      <trkpt lat="46.19892" lon="-1.19926">
        <ele>3.5</ele>
        <time>2021-08-03T12:38:16Z</time>
      </trkpt>
      <trkpt lat="46.19914" lon="-1.19932">
        <ele>4.46</ele>
        <time>2021-08-03T12:38:35Z</time>
      </trkpt>
      <trkpt lat="46.19939" lon="-1.1994">
        <ele>4.46</ele>
        <time>2021-08-03T12:38:58Z</time>
      </trkpt>
      <trkpt lat="46.1996" lon="-1.19946">
        <ele>4.94</ele>
        <time>2021-08-03T12:39:17Z</time>
      </trkpt>
      <trkpt lat="46.19982" lon="-1.19956">
        <ele>4.94</ele>
        <time>2021-08-03T12:39:37Z</time>
      </trkpt>
      <trkpt lat="46.20005" lon="-1.19969">
        <ele>4.94</ele>
        <time>2021-08-03T12:39:57Z</time>
      </trkpt>
      <trkpt lat="46.20026" lon="-1.19987">
        <ele>4.94</ele>
        <time>2021-08-03T12:40:19Z</time>
      </trkpt>
      <trkpt lat="46.20045" lon="-1.20008">
        <ele>4.94</ele>
        <time>2021-08-03T12:40:39Z</time>
      </trkpt>
      <trkpt lat="46.2006" lon="-1.20031">
        <ele>4.94</ele>
        <time>2021-08-03T12:40:58Z</time>
      </trkpt>
      <trkpt lat="46.20071" lon="-1.20049">
        <ele>5.42</ele>
        <time>2021-08-03T12:41:13Z</time>
      </trkpt>
      <trkpt lat="46.20076" lon="-1.20052">
        <ele>5.91</ele>
        <time>2021-08-03T12:41:29Z</time>
      </trkpt>
      <trkpt lat="46.20076" lon="-1.20054">
        <ele>5.91</ele>
        <time>2021-08-03T12:41:55Z</time>
      </trkpt>
      <trkpt lat="46.20077" lon="-1.20056">
        <ele>5.42</ele>
        <time>2021-08-03T12:42:21Z</time>
      </trkpt>
      <trkpt lat="46.20079" lon="-1.20062">
        <ele>5.42</ele>
        <time>2021-08-03T12:42:25Z</time>
      </trkpt>
      <trkpt lat="46.20091" lon="-1.20082">
        <ele>5.42</ele>
        <time>2021-08-03T12:42:43Z</time>
      </trkpt>
      <trkpt lat="46.20094" lon="-1.20091">
        <ele>5.91</ele>
        <time>2021-08-03T12:42:57Z</time>
      </trkpt>
      <trkpt lat="46.20102" lon="-1.20103">
        <ele>5.91</ele>
        <time>2021-08-03T12:43:12Z</time>
      </trkpt>
      <trkpt lat="46.20119" lon="-1.20127">
        <ele>4.94</ele>
        <time>2021-08-03T12:43:33Z</time>
      </trkpt>
      <trkpt lat="46.2013" lon="-1.20126">
        <ele>4.46</ele>
        <time>2021-08-03T12:43:53Z</time>
      </trkpt>
      <trkpt lat="46.20125" lon="-1.20119">
        <ele>4.46</ele>
        <time>2021-08-03T12:44:12Z</time>
      </trkpt>
      <trkpt lat="46.20121" lon="-1.20119">
        <ele>4.46</ele>
        <time>2021-08-03T12:44:30Z</time>
      </trkpt>
      <trkpt lat="46.20122" lon="-1.20117">
        <ele>3.98</ele>
        <time>2021-08-03T12:44:59Z</time>
      </trkpt>
      <trkpt lat="46.20115" lon="-1.20111">
        <ele>4.46</ele>
        <time>2021-08-03T12:45:14Z</time>
      </trkpt>
      <trkpt lat="46.20114" lon="-1.20111">
        <ele>4.94</ele>
        <time>2021-08-03T12:45:39Z</time>
      </trkpt>
      <trkpt lat="46.20116" lon="-1.20112">
        <ele>4.46</ele>
        <time>2021-08-03T12:46:08Z</time>
      </trkpt>
      <trkpt lat="46.20118" lon="-1.20095">
        <ele>3.98</ele>
        <time>2021-08-03T12:46:24Z</time>
      </trkpt>
      <trkpt lat="46.20114" lon="-1.20084">
        <ele>4.46</ele>
        <time>2021-08-03T12:46:43Z</time>
      </trkpt>
      <trkpt lat="46.20113" lon="-1.20078">
        <ele>3.98</ele>
        <time>2021-08-03T12:46:51Z</time>
      </trkpt>
      <trkpt lat="46.20106" lon="-1.20056">
        <ele>3.5</ele>
        <time>2021-08-03T12:47:05Z</time>
      </trkpt>
      <trkpt lat="46.20098" lon="-1.20037">
        <ele>3.98</ele>
        <time>2021-08-03T12:47:20Z</time>
      </trkpt>
      <trkpt lat="46.20118" lon="-1.20019">
        <ele>4.46</ele>
        <time>2021-08-03T12:47:39Z</time>
      </trkpt>
      <trkpt lat="46.20136" lon="-1.20005">
        <ele>3.98</ele>
        <time>2021-08-03T12:47:58Z</time>
      </trkpt>
      <trkpt lat="46.20147" lon="-1.20003">
        <ele>3.5</ele>
        <time>2021-08-03T12:48:12Z</time>
      </trkpt>
      <trkpt lat="46.20147" lon="-1.20002">
        <ele>3.5</ele>
        <time>2021-08-03T12:48:35Z</time>
      </trkpt>
      <trkpt lat="46.20147" lon="-1.20003">
        <ele>3.02</ele>
        <time>2021-08-03T12:49:04Z</time>
      </trkpt>
      <trkpt lat="46.2015" lon="-1.2">
        <ele>3.5</ele>
        <time>2021-08-03T12:49:39Z</time>
      </trkpt>
      <trkpt lat="46.20151" lon="-1.20001">
        <ele>3.02</ele>
        <time>2021-08-03T12:50:05Z</time>
      </trkpt>
      <trkpt lat="46.20152" lon="-1.2">
        <ele>3.5</ele>
        <time>2021-08-03T12:50:27Z</time>
      </trkpt>
      <trkpt lat="46.20154" lon="-1.2">
        <ele>3.5</ele>
        <time>2021-08-03T12:50:52Z</time>
      </trkpt>
      <trkpt lat="46.20163" lon="-1.2">
        <ele>3.02</ele>
        <time>2021-08-03T12:51:06Z</time>
      </trkpt>
      <trkpt lat="46.20181" lon="-1.2">
        <ele>3.5</ele>
        <time>2021-08-03T12:51:25Z</time>
      </trkpt>
      <trkpt lat="46.20198" lon="-1.20003">
        <ele>3.98</ele>
        <time>2021-08-03T12:51:41Z</time>
      </trkpt>
      <trkpt lat="46.20211" lon="-1.20003">
        <ele>3.5</ele>
        <time>2021-08-03T12:51:55Z</time>
      </trkpt>
      <trkpt lat="46.20219" lon="-1.20013">
        <ele>4.46</ele>
        <time>2021-08-03T12:52:08Z</time>
      </trkpt>
      <trkpt lat="46.20225" lon="-1.20029">
        <ele>4.46</ele>
        <time>2021-08-03T12:52:22Z</time>
      </trkpt>
      <trkpt lat="46.20229" lon="-1.20038">
        <ele>4.46</ele>
        <time>2021-08-03T12:52:40Z</time>
      </trkpt>
      <trkpt lat="46.20233" lon="-1.20051">
        <ele>3.5</ele>
        <time>2021-08-03T12:53:00Z</time>
      </trkpt>
      <trkpt lat="46.20227" lon="-1.20067">
        <ele>3.02</ele>
        <time>2021-08-03T12:53:14Z</time>
      </trkpt>
      <trkpt lat="46.20225" lon="-1.20072">
        <ele>3.02</ele>
        <time>2021-08-03T12:53:18Z</time>
      </trkpt>
      <trkpt lat="46.20218" lon="-1.20099">
        <ele>3.02</ele>
        <time>2021-08-03T12:53:36Z</time>
      </trkpt>
      <trkpt lat="46.2021" lon="-1.20106">
        <ele>2.54</ele>
        <time>2021-08-03T12:53:50Z</time>
      </trkpt>
      <trkpt lat="46.20213" lon="-1.20114">
        <ele>2.54</ele>
        <time>2021-08-03T12:54:09Z</time>
      </trkpt>
      <trkpt lat="46.20209" lon="-1.20142">
        <ele>2.06</ele>
        <time>2021-08-03T12:54:27Z</time>
      </trkpt>
      <trkpt lat="46.20209" lon="-1.20145">
        <ele>2.06</ele>
        <time>2021-08-03T12:54:29Z</time>
      </trkpt>
      <trkpt lat="46.20201" lon="-1.20161">
        <ele>0.62</ele>
        <time>2021-08-03T12:54:43Z</time>
      </trkpt>
      <trkpt lat="46.20193" lon="-1.20186">
        <ele>1.58</ele>
        <time>2021-08-03T12:54:59Z</time>
      </trkpt>
      <trkpt lat="46.2019" lon="-1.20219">
        <ele>2.06</ele>
        <time>2021-08-03T12:55:17Z</time>
      </trkpt>
      <trkpt lat="46.2019" lon="-1.20233">
        <ele>3.02</ele>
        <time>2021-08-03T12:55:25Z</time>
      </trkpt>
      <trkpt lat="46.20191" lon="-1.20246">
        <ele>2.54</ele>
        <time>2021-08-03T12:55:32Z</time>
      </trkpt>
      <trkpt lat="46.20192" lon="-1.20282">
        <ele>2.54</ele>
        <time>2021-08-03T12:55:52Z</time>
      </trkpt>
      <trkpt lat="46.20182" lon="-1.20315">
        <ele>2.06</ele>
        <time>2021-08-03T12:56:11Z</time>
      </trkpt>
      <trkpt lat="46.20172" lon="-1.20335">
        <ele>2.54</ele>
        <time>2021-08-03T12:56:25Z</time>
      </trkpt>
      <trkpt lat="46.20165" lon="-1.20349">
        <ele>2.06</ele>
        <time>2021-08-03T12:56:36Z</time>
      </trkpt>
      <trkpt lat="46.2016" lon="-1.20361">
        <ele>2.06</ele>
        <time>2021-08-03T12:56:54Z</time>
      </trkpt>
      <trkpt lat="46.20162" lon="-1.2036">
        <ele>2.54</ele>
        <time>2021-08-03T12:57:07Z</time>
      </trkpt>
      <trkpt lat="46.20187" lon="-1.20379">
        <ele>3.5</ele>
        <time>2021-08-03T12:57:29Z</time>
      </trkpt>
      <trkpt lat="46.2021" lon="-1.20401">
        <ele>3.5</ele>
        <time>2021-08-03T12:57:49Z</time>
      </trkpt>
      <trkpt lat="46.20226" lon="-1.20425">
        <ele>3.5</ele>
        <time>2021-08-03T12:58:07Z</time>
      </trkpt>
      <trkpt lat="46.20231" lon="-1.20437">
        <ele>3.5</ele>
        <time>2021-08-03T12:58:24Z</time>
      </trkpt>
      <trkpt lat="46.20233" lon="-1.20445">
        <ele>3.98</ele>
        <time>2021-08-03T12:58:45Z</time>
      </trkpt>
      <trkpt lat="46.20234" lon="-1.20447">
        <ele>4.46</ele>
        <time>2021-08-03T12:58:47Z</time>
      </trkpt>
      <trkpt lat="46.20239" lon="-1.20477">
        <ele>4.94</ele>
        <time>2021-08-03T12:59:06Z</time>
      </trkpt>
      <trkpt lat="46.20239" lon="-1.20506">
        <ele>3.5</ele>
        <time>2021-08-03T12:59:26Z</time>
      </trkpt>
      <trkpt lat="46.20238" lon="-1.20509">
        <ele>3.98</ele>
        <time>2021-08-03T12:59:42Z</time>
      </trkpt>
      <trkpt lat="46.20239" lon="-1.20514">
        <ele>3.98</ele>
        <time>2021-08-03T12:59:45Z</time>
      </trkpt>
      <trkpt lat="46.20237" lon="-1.20534">
        <ele>4.46</ele>
        <time>2021-08-03T12:59:57Z</time>
      </trkpt>
      <trkpt lat="46.20236" lon="-1.20539">
        <ele>3.98</ele>
        <time>2021-08-03T13:00:00Z</time>
      </trkpt>
      <trkpt lat="46.20237" lon="-1.20547">
        <ele>3.98</ele>
        <time>2021-08-03T13:00:05Z</time>
      </trkpt>
      <trkpt lat="46.20251" lon="-1.20573">
        <ele>4.94</ele>
        <time>2021-08-03T13:00:24Z</time>
      </trkpt>
      <trkpt lat="46.20262" lon="-1.20595">
        <ele>5.91</ele>
        <time>2021-08-03T13:00:40Z</time>
      </trkpt>
      <trkpt lat="46.20263" lon="-1.20596">
        <ele>5.91</ele>
        <time>2021-08-03T13:00:42Z</time>
      </trkpt>
      <trkpt lat="46.20271" lon="-1.20596">
        <ele>6.39</ele>
        <time>2021-08-03T13:00:50Z</time>
      </trkpt>
      <trkpt lat="46.20291" lon="-1.20592">
        <ele>6.39</ele>
        <time>2021-08-03T13:01:08Z</time>
      </trkpt>
      <trkpt lat="46.2031" lon="-1.20594">
        <ele>6.87</ele>
        <time>2021-08-03T13:01:25Z</time>
      </trkpt>
      <trkpt lat="46.20329" lon="-1.20592">
        <ele>7.83</ele>
        <time>2021-08-03T13:01:43Z</time>
      </trkpt>
      <trkpt lat="46.20338" lon="-1.20593">
        <ele>8.31</ele>
        <time>2021-08-03T13:01:53Z</time>
      </trkpt>
      <trkpt lat="46.20359" lon="-1.20602">
        <ele>8.79</ele>
        <time>2021-08-03T13:02:13Z</time>
      </trkpt>
      <trkpt lat="46.20374" lon="-1.20607">
        <ele>8.79</ele>
        <time>2021-08-03T13:02:28Z</time>
      </trkpt>
      <trkpt lat="46.20387" lon="-1.20611">
        <ele>9.27</ele>
        <time>2021-08-03T13:02:44Z</time>
      </trkpt>
      <trkpt lat="46.20405" lon="-1.20612">
        <ele>9.75</ele>
        <time>2021-08-03T13:02:59Z</time>
      </trkpt>
      <trkpt lat="46.20406" lon="-1.20612">
        <ele>10.23</ele>
        <time>2021-08-03T13:03:00Z</time>
      </trkpt>
      <trkpt lat="46.20414" lon="-1.20592">
        <ele>10.71</ele>
        <time>2021-08-03T13:03:17Z</time>
      </trkpt>
      <trkpt lat="46.20426" lon="-1.20571">
        <ele>10.23</ele>
        <time>2021-08-03T13:03:36Z</time>
      </trkpt>
      <trkpt lat="46.20439" lon="-1.20546">
        <ele>10.71</ele>
        <time>2021-08-03T13:03:57Z</time>
      </trkpt>
      <trkpt lat="46.20451" lon="-1.20524">
        <ele>10.71</ele>
        <time>2021-08-03T13:04:16Z</time>
      </trkpt>
      <trkpt lat="46.20464" lon="-1.205">
        <ele>11.19</ele>
        <time>2021-08-03T13:04:35Z</time>
      </trkpt>
      <trkpt lat="46.20475" lon="-1.20485">
        <ele>11.19</ele>
        <time>2021-08-03T13:04:51Z</time>
      </trkpt>
      <trkpt lat="46.20476" lon="-1.20486">
        <ele>11.19</ele>
        <time>2021-08-03T13:05:07Z</time>
      </trkpt>
      <trkpt lat="46.20477" lon="-1.20485">
        <ele>10.71</ele>
        <time>2021-08-03T13:05:39Z</time>
      </trkpt>
      <trkpt lat="46.20477" lon="-1.20484">
        <ele>10.71</ele>
        <time>2021-08-03T13:05:40Z</time>
      </trkpt>
      <trkpt lat="46.20488" lon="-1.20462">
        <ele>10.71</ele>
        <time>2021-08-03T13:05:57Z</time>
      </trkpt>
      <trkpt lat="46.2049" lon="-1.20458">
        <ele>10.71</ele>
        <time>2021-08-03T13:06:01Z</time>
      </trkpt>
      <trkpt lat="46.20496" lon="-1.20448">
        <ele>11.67</ele>
        <time>2021-08-03T13:06:20Z</time>
      </trkpt>
      <trkpt lat="46.20495" lon="-1.20448">
        <ele>11.19</ele>
        <time>2021-08-03T13:06:50Z</time>
      </trkpt>
      <trkpt lat="46.20502" lon="-1.2044">
        <ele>10.71</ele>
        <time>2021-08-03T13:07:16Z</time>
      </trkpt>
      <trkpt lat="46.20505" lon="-1.20436">
        <ele>11.19</ele>
        <time>2021-08-03T13:07:20Z</time>
      </trkpt>
      <trkpt lat="46.20526" lon="-1.20446">
        <ele>11.67</ele>
        <time>2021-08-03T13:07:42Z</time>
      </trkpt>
      <trkpt lat="46.2054" lon="-1.20461">
        <ele>12.15</ele>
        <time>2021-08-03T13:08:00Z</time>
      </trkpt>
      <trkpt lat="46.20553" lon="-1.20476">
        <ele>12.15</ele>
        <time>2021-08-03T13:08:16Z</time>
      </trkpt>
      <trkpt lat="46.20569" lon="-1.20496">
        <ele>12.15</ele>
        <time>2021-08-03T13:08:35Z</time>
      </trkpt>
      <trkpt lat="46.20583" lon="-1.20511">
        <ele>11.67</ele>
        <time>2021-08-03T13:08:53Z</time>
      </trkpt>
      <trkpt lat="46.20603" lon="-1.205">
        <ele>11.67</ele>
        <time>2021-08-03T13:09:13Z</time>
      </trkpt>
      <trkpt lat="46.20619" lon="-1.20486">
        <ele>12.15</ele>
        <time>2021-08-03T13:09:31Z</time>
      </trkpt>
      <trkpt lat="46.20639" lon="-1.2047">
        <ele>12.15</ele>
        <time>2021-08-03T13:09:51Z</time>
      </trkpt>
      <trkpt lat="46.20657" lon="-1.20457">
        <ele>12.63</ele>
        <time>2021-08-03T13:10:11Z</time>
      </trkpt>
      <trkpt lat="46.2067" lon="-1.20448">
        <ele>12.63</ele>
        <time>2021-08-03T13:10:29Z</time>
      </trkpt>
      <trkpt lat="46.20669" lon="-1.20448">
        <ele>13.12</ele>
        <time>2021-08-03T13:10:57Z</time>
      </trkpt>
      <trkpt lat="46.20675" lon="-1.20442">
        <ele>12.63</ele>
        <time>2021-08-03T13:11:23Z</time>
      </trkpt>
      <trkpt lat="46.2069" lon="-1.20431">
        <ele>12.63</ele>
        <time>2021-08-03T13:11:39Z</time>
      </trkpt>
      <trkpt lat="46.20706" lon="-1.20417">
        <ele>13.12</ele>
        <time>2021-08-03T13:11:57Z</time>
      </trkpt>
      <trkpt lat="46.20724" lon="-1.20398">
        <ele>13.12</ele>
        <time>2021-08-03T13:12:18Z</time>
      </trkpt>
      <trkpt lat="46.20743" lon="-1.20381">
        <ele>13.12</ele>
        <time>2021-08-03T13:12:38Z</time>
      </trkpt>
      <trkpt lat="46.20761" lon="-1.20362">
        <ele>13.12</ele>
        <time>2021-08-03T13:12:59Z</time>
      </trkpt>
      <trkpt lat="46.20777" lon="-1.20345">
        <ele>13.6</ele>
        <time>2021-08-03T13:13:18Z</time>
      </trkpt>
      <trkpt lat="46.20785" lon="-1.20337">
        <ele>12.63</ele>
        <time>2021-08-03T13:13:35Z</time>
      </trkpt>
      <trkpt lat="46.20787" lon="-1.20334">
        <ele>13.6</ele>
        <time>2021-08-03T13:13:52Z</time>
      </trkpt>
      <trkpt lat="46.20803" lon="-1.20318">
        <ele>13.12</ele>
        <time>2021-08-03T13:14:11Z</time>
      </trkpt>
      <trkpt lat="46.20821" lon="-1.20297">
        <ele>13.12</ele>
        <time>2021-08-03T13:14:33Z</time>
      </trkpt>
      <trkpt lat="46.2084" lon="-1.20279">
        <ele>13.6</ele>
        <time>2021-08-03T13:14:54Z</time>
      </trkpt>
      <trkpt lat="46.20856" lon="-1.20263">
        <ele>13.6</ele>
        <time>2021-08-03T13:15:12Z</time>
      </trkpt>
      <trkpt lat="46.20876" lon="-1.20248">
        <ele>13.12</ele>
        <time>2021-08-03T13:15:33Z</time>
      </trkpt>
      <trkpt lat="46.20896" lon="-1.20232">
        <ele>13.6</ele>
        <time>2021-08-03T13:15:54Z</time>
      </trkpt>
      <trkpt lat="46.20913" lon="-1.20221">
        <ele>13.6</ele>
        <time>2021-08-03T13:16:11Z</time>
      </trkpt>
      <trkpt lat="46.20929" lon="-1.20212">
        <ele>13.6</ele>
        <time>2021-08-03T13:16:27Z</time>
      </trkpt>
      <trkpt lat="46.20949" lon="-1.20199">
        <ele>14.08</ele>
        <time>2021-08-03T13:16:47Z</time>
      </trkpt>
      <trkpt lat="46.20968" lon="-1.20186">
        <ele>14.08</ele>
        <time>2021-08-03T13:17:06Z</time>
      </trkpt>
      <trkpt lat="46.20988" lon="-1.20175">
        <ele>14.08</ele>
        <time>2021-08-03T13:17:25Z</time>
      </trkpt>
      <trkpt lat="46.21007" lon="-1.20159">
        <ele>14.56</ele>
        <time>2021-08-03T13:17:45Z</time>
      </trkpt>
      <trkpt lat="46.21027" lon="-1.20139">
        <ele>15.04</ele>
        <time>2021-08-03T13:18:07Z</time>
      </trkpt>
      <trkpt lat="46.21047" lon="-1.20123">
        <ele>15.52</ele>
        <time>2021-08-03T13:18:28Z</time>
      </trkpt>
      <trkpt lat="46.21064" lon="-1.2011">
        <ele>16</ele>
        <time>2021-08-03T13:18:45Z</time>
      </trkpt>
      <trkpt lat="46.21085" lon="-1.20093">
        <ele>15.52</ele>
        <time>2021-08-03T13:19:08Z</time>
      </trkpt>
      <trkpt lat="46.21103" lon="-1.20075">
        <ele>16.48</ele>
        <time>2021-08-03T13:19:27Z</time>
      </trkpt>
      <trkpt lat="46.21122" lon="-1.20059">
        <ele>16</ele>
        <time>2021-08-03T13:19:47Z</time>
      </trkpt>
      <trkpt lat="46.21141" lon="-1.20041">
        <ele>16.48</ele>
        <time>2021-08-03T13:20:07Z</time>
      </trkpt>
      <trkpt lat="46.21151" lon="-1.20034">
        <ele>16.48</ele>
        <time>2021-08-03T13:20:22Z</time>
      </trkpt>
      <trkpt lat="46.21154" lon="-1.20029">
        <ele>15.52</ele>
        <time>2021-08-03T13:20:26Z</time>
      </trkpt>
      <trkpt lat="46.21157" lon="-1.20022">
        <ele>16.48</ele>
        <time>2021-08-03T13:20:43Z</time>
      </trkpt>
      <trkpt lat="46.21164" lon="-1.20012">
        <ele>16</ele>
        <time>2021-08-03T13:21:03Z</time>
      </trkpt>
      <trkpt lat="46.21177" lon="-1.19994">
        <ele>16.48</ele>
        <time>2021-08-03T13:21:21Z</time>
      </trkpt>
      <trkpt lat="46.21191" lon="-1.19976">
        <ele>16</ele>
        <time>2021-08-03T13:21:38Z</time>
      </trkpt>
      <trkpt lat="46.21206" lon="-1.19961">
        <ele>16.48</ele>
        <time>2021-08-03T13:21:55Z</time>
      </trkpt>
      <trkpt lat="46.2122" lon="-1.19944">
        <ele>16.48</ele>
        <time>2021-08-03T13:22:12Z</time>
      </trkpt>
      <trkpt lat="46.21226" lon="-1.19937">
        <ele>16</ele>
        <time>2021-08-03T13:22:20Z</time>
      </trkpt>
      <trkpt lat="46.21243" lon="-1.19922">
        <ele>16</ele>
        <time>2021-08-03T13:22:38Z</time>
      </trkpt>
      <trkpt lat="46.21254" lon="-1.19911">
        <ele>16</ele>
        <time>2021-08-03T13:22:51Z</time>
      </trkpt>
      <trkpt lat="46.2127" lon="-1.19891">
        <ele>16</ele>
        <time>2021-08-03T13:23:11Z</time>
      </trkpt>
      <trkpt lat="46.21279" lon="-1.19867">
        <ele>15.52</ele>
        <time>2021-08-03T13:23:31Z</time>
      </trkpt>
      <trkpt lat="46.21286" lon="-1.19843">
        <ele>15.52</ele>
        <time>2021-08-03T13:23:48Z</time>
      </trkpt>
      <trkpt lat="46.21291" lon="-1.19825">
        <ele>15.52</ele>
        <time>2021-08-03T13:24:04Z</time>
      </trkpt>
      <trkpt lat="46.21292" lon="-1.19817">
        <ele>15.52</ele>
        <time>2021-08-03T13:24:09Z</time>
      </trkpt>
      <trkpt lat="46.21293" lon="-1.19789">
        <ele>15.52</ele>
        <time>2021-08-03T13:24:27Z</time>
      </trkpt>
      <trkpt lat="46.21292" lon="-1.19775">
        <ele>18.4</ele>
        <time>2021-08-03T13:24:42Z</time>
      </trkpt>
      <trkpt lat="46.21292" lon="-1.19772">
        <ele>19.36</ele>
        <time>2021-08-03T13:24:44Z</time>
      </trkpt>
      <trkpt lat="46.21293" lon="-1.19769">
        <ele>19.36</ele>
        <time>2021-08-03T13:24:47Z</time>
      </trkpt>
      <trkpt lat="46.213" lon="-1.19763">
        <ele>19.36</ele>
        <time>2021-08-03T13:25:02Z</time>
      </trkpt>
      <trkpt lat="46.21298" lon="-1.19763">
        <ele>19.84</ele>
        <time>2021-08-03T13:25:27Z</time>
      </trkpt>
      <trkpt lat="46.21301" lon="-1.1977">
        <ele>19.84</ele>
        <time>2021-08-03T13:25:47Z</time>
      </trkpt>
      <trkpt lat="46.21302" lon="-1.19764">
        <ele>19.36</ele>
        <time>2021-08-03T13:26:13Z</time>
      </trkpt>
      <trkpt lat="46.21297" lon="-1.19765">
        <ele>19.36</ele>
        <time>2021-08-03T13:26:29Z</time>
      </trkpt>
      <trkpt lat="46.21301" lon="-1.19766">
        <ele>19.36</ele>
        <time>2021-08-03T13:26:43Z</time>
      </trkpt>
      <trkpt lat="46.21303" lon="-1.19764">
        <ele>19.36</ele>
        <time>2021-08-03T13:27:11Z</time>
      </trkpt>
      <trkpt lat="46.21301" lon="-1.19762">
        <ele>19.36</ele>
        <time>2021-08-03T13:27:47Z</time>
      </trkpt>
      <trkpt lat="46.21296" lon="-1.19762">
        <ele>19.36</ele>
        <time>2021-08-03T13:28:01Z</time>
      </trkpt>
      <trkpt lat="46.21294" lon="-1.19758">
        <ele>19.36</ele>
        <time>2021-08-03T13:28:19Z</time>
      </trkpt>
      <trkpt lat="46.21299" lon="-1.19747">
        <ele>17.44</ele>
        <time>2021-08-03T13:28:39Z</time>
      </trkpt>
      <trkpt lat="46.21309" lon="-1.19726">
        <ele>15.04</ele>
        <time>2021-08-03T13:28:57Z</time>
      </trkpt>
      <trkpt lat="46.21319" lon="-1.19698">
        <ele>14.56</ele>
        <time>2021-08-03T13:29:16Z</time>
      </trkpt>
      <trkpt lat="46.21327" lon="-1.19674">
        <ele>14.56</ele>
        <time>2021-08-03T13:29:33Z</time>
      </trkpt>
      <trkpt lat="46.21336" lon="-1.19654">
        <ele>13.6</ele>
        <time>2021-08-03T13:29:49Z</time>
      </trkpt>
      <trkpt lat="46.21338" lon="-1.19626">
        <ele>14.56</ele>
        <time>2021-08-03T13:30:08Z</time>
      </trkpt>
      <trkpt lat="46.21338" lon="-1.19625">
        <ele>13.6</ele>
        <time>2021-08-03T13:30:24Z</time>
      </trkpt>
      <trkpt lat="46.21337" lon="-1.19624">
        <ele>13.6</ele>
        <time>2021-08-03T13:30:59Z</time>
      </trkpt>
      <trkpt lat="46.2134" lon="-1.19609">
        <ele>13.6</ele>
        <time>2021-08-03T13:31:21Z</time>
      </trkpt>
      <trkpt lat="46.21352" lon="-1.19578">
        <ele>12.63</ele>
        <time>2021-08-03T13:31:43Z</time>
      </trkpt>
      <trkpt lat="46.21368" lon="-1.19549">
        <ele>11.67</ele>
        <time>2021-08-03T13:32:05Z</time>
      </trkpt>
      <trkpt lat="46.21379" lon="-1.1953">
        <ele>11.19</ele>
        <time>2021-08-03T13:32:22Z</time>
      </trkpt>
      <trkpt lat="46.21393" lon="-1.19506">
        <ele>11.19</ele>
        <time>2021-08-03T13:32:42Z</time>
      </trkpt>
      <trkpt lat="46.21407" lon="-1.19482">
        <ele>11.19</ele>
        <time>2021-08-03T13:33:02Z</time>
      </trkpt>
      <trkpt lat="46.21415" lon="-1.19459">
        <ele>11.67</ele>
        <time>2021-08-03T13:33:18Z</time>
      </trkpt>
      <trkpt lat="46.21415" lon="-1.19442">
        <ele>9.75</ele>
        <time>2021-08-03T13:33:33Z</time>
      </trkpt>
      <trkpt lat="46.21422" lon="-1.19441">
        <ele>11.67</ele>
        <time>2021-08-03T13:33:48Z</time>
      </trkpt>
      <trkpt lat="46.21426" lon="-1.19441">
        <ele>11.19</ele>
        <time>2021-08-03T13:33:51Z</time>
      </trkpt>
      <trkpt lat="46.21443" lon="-1.19429">
        <ele>10.71</ele>
        <time>2021-08-03T13:34:09Z</time>
      </trkpt>
      <trkpt lat="46.21454" lon="-1.1941">
        <ele>11.19</ele>
        <time>2021-08-03T13:34:26Z</time>
      </trkpt>
      <trkpt lat="46.21463" lon="-1.19397">
        <ele>10.23</ele>
        <time>2021-08-03T13:34:44Z</time>
      </trkpt>
      <trkpt lat="46.2147" lon="-1.19383">
        <ele>10.71</ele>
        <time>2021-08-03T13:35:00Z</time>
      </trkpt>
      <trkpt lat="46.21471" lon="-1.19373">
        <ele>11.67</ele>
        <time>2021-08-03T13:35:15Z</time>
      </trkpt>
      <trkpt lat="46.21469" lon="-1.19373">
        <ele>11.19</ele>
        <time>2021-08-03T13:35:35Z</time>
      </trkpt>
      <trkpt lat="46.21473" lon="-1.19371">
        <ele>10.71</ele>
        <time>2021-08-03T13:35:56Z</time>
      </trkpt>
      <trkpt lat="46.21474" lon="-1.19373">
        <ele>10.71</ele>
        <time>2021-08-03T13:36:26Z</time>
      </trkpt>
      <trkpt lat="46.21473" lon="-1.19372">
        <ele>11.19</ele>
        <time>2021-08-03T13:37:05Z</time>
      </trkpt>
      <trkpt lat="46.21471" lon="-1.19369">
        <ele>9.75</ele>
        <time>2021-08-03T13:37:30Z</time>
      </trkpt>
      <trkpt lat="46.21477" lon="-1.19367">
        <ele>10.23</ele>
        <time>2021-08-03T13:37:56Z</time>
      </trkpt>
      <trkpt lat="46.2149" lon="-1.19346">
        <ele>10.23</ele>
        <time>2021-08-03T13:38:16Z</time>
      </trkpt>
      <trkpt lat="46.21503" lon="-1.19322">
        <ele>9.27</ele>
        <time>2021-08-03T13:38:36Z</time>
      </trkpt>
      <trkpt lat="46.21513" lon="-1.19301">
        <ele>10.23</ele>
        <time>2021-08-03T13:38:53Z</time>
      </trkpt>
      <trkpt lat="46.21523" lon="-1.19279">
        <ele>10.71</ele>
        <time>2021-08-03T13:39:10Z</time>
      </trkpt>
      <trkpt lat="46.21533" lon="-1.19256">
        <ele>10.71</ele>
        <time>2021-08-03T13:39:27Z</time>
      </trkpt>
      <trkpt lat="46.21543" lon="-1.19228">
        <ele>11.19</ele>
        <time>2021-08-03T13:39:47Z</time>
      </trkpt>
      <trkpt lat="46.2155" lon="-1.19205">
        <ele>11.19</ele>
        <time>2021-08-03T13:40:05Z</time>
      </trkpt>
      <trkpt lat="46.21557" lon="-1.19186">
        <ele>11.67</ele>
        <time>2021-08-03T13:40:19Z</time>
      </trkpt>
      <trkpt lat="46.21564" lon="-1.1916">
        <ele>11.67</ele>
        <time>2021-08-03T13:40:37Z</time>
      </trkpt>
      <trkpt lat="46.21571" lon="-1.1913">
        <ele>12.15</ele>
        <time>2021-08-03T13:40:58Z</time>
      </trkpt>
      <trkpt lat="46.21577" lon="-1.19103">
        <ele>12.15</ele>
        <time>2021-08-03T13:41:17Z</time>
      </trkpt>
      <trkpt lat="46.21582" lon="-1.19075">
        <ele>12.15</ele>
        <time>2021-08-03T13:41:35Z</time>
      </trkpt>
      <trkpt lat="46.21586" lon="-1.19047">
        <ele>12.15</ele>
        <time>2021-08-03T13:41:53Z</time>
      </trkpt>
      <trkpt lat="46.21591" lon="-1.19018">
        <ele>12.15</ele>
        <time>2021-08-03T13:42:12Z</time>
      </trkpt>
      <trkpt lat="46.21595" lon="-1.18991">
        <ele>12.63</ele>
        <time>2021-08-03T13:42:31Z</time>
      </trkpt>
      <trkpt lat="46.21602" lon="-1.1896">
        <ele>13.12</ele>
        <time>2021-08-03T13:42:52Z</time>
      </trkpt>
      <trkpt lat="46.21612" lon="-1.18933">
        <ele>13.12</ele>
        <time>2021-08-03T13:43:12Z</time>
      </trkpt>
      <trkpt lat="46.21621" lon="-1.18903">
        <ele>13.12</ele>
        <time>2021-08-03T13:43:33Z</time>
      </trkpt>
      <trkpt lat="46.21632" lon="-1.18879">
        <ele>13.12</ele>
        <time>2021-08-03T13:43:52Z</time>
      </trkpt>
      <trkpt lat="46.2164" lon="-1.18858">
        <ele>13.12</ele>
        <time>2021-08-03T13:44:08Z</time>
      </trkpt>
      <trkpt lat="46.21651" lon="-1.18839">
        <ele>13.12</ele>
        <time>2021-08-03T13:44:24Z</time>
      </trkpt>
      <trkpt lat="46.21664" lon="-1.18822">
        <ele>13.12</ele>
        <time>2021-08-03T13:44:43Z</time>
      </trkpt>
      <trkpt lat="46.21679" lon="-1.1881">
        <ele>12.15</ele>
        <time>2021-08-03T13:44:59Z</time>
      </trkpt>
      <trkpt lat="46.21696" lon="-1.18796">
        <ele>12.15</ele>
        <time>2021-08-03T13:45:17Z</time>
      </trkpt>
      <trkpt lat="46.21713" lon="-1.18782">
        <ele>11.19</ele>
        <time>2021-08-03T13:45:35Z</time>
      </trkpt>
      <trkpt lat="46.21728" lon="-1.18766">
        <ele>11.19</ele>
        <time>2021-08-03T13:45:53Z</time>
      </trkpt>
      <trkpt lat="46.2174" lon="-1.18752">
        <ele>11.19</ele>
        <time>2021-08-03T13:46:08Z</time>
      </trkpt>
      <trkpt lat="46.21754" lon="-1.18737">
        <ele>10.71</ele>
        <time>2021-08-03T13:46:25Z</time>
      </trkpt>
      <trkpt lat="46.2177" lon="-1.1872">
        <ele>10.71</ele>
        <time>2021-08-03T13:46:42Z</time>
      </trkpt>
      <trkpt lat="46.21787" lon="-1.187">
        <ele>10.71</ele>
        <time>2021-08-03T13:47:02Z</time>
      </trkpt>
      <trkpt lat="46.21803" lon="-1.18682">
        <ele>10.23</ele>
        <time>2021-08-03T13:47:21Z</time>
      </trkpt>
      <trkpt lat="46.21822" lon="-1.18663">
        <ele>10.23</ele>
        <time>2021-08-03T13:47:42Z</time>
      </trkpt>
      <trkpt lat="46.2184" lon="-1.18648">
        <ele>9.75</ele>
        <time>2021-08-03T13:48:02Z</time>
      </trkpt>
      <trkpt lat="46.21856" lon="-1.18632">
        <ele>9.75</ele>
        <time>2021-08-03T13:48:21Z</time>
      </trkpt>
      <trkpt lat="46.21873" lon="-1.18615">
        <ele>10.23</ele>
        <time>2021-08-03T13:48:40Z</time>
      </trkpt>
      <trkpt lat="46.21875" lon="-1.18613">
        <ele>9.75</ele>
        <time>2021-08-03T13:48:42Z</time>
      </trkpt>
      <trkpt lat="46.21891" lon="-1.18598">
        <ele>9.75</ele>
        <time>2021-08-03T13:49:01Z</time>
      </trkpt>
      <trkpt lat="46.21897" lon="-1.18574">
        <ele>10.23</ele>
        <time>2021-08-03T13:49:19Z</time>
      </trkpt>
      <trkpt lat="46.21896" lon="-1.18568">
        <ele>9.75</ele>
        <time>2021-08-03T13:49:23Z</time>
      </trkpt>
      <trkpt lat="46.21898" lon="-1.1855">
        <ele>8.79</ele>
        <time>2021-08-03T13:49:41Z</time>
      </trkpt>
      <trkpt lat="46.21901" lon="-1.18548">
        <ele>7.35</ele>
        <time>2021-08-03T13:49:47Z</time>
      </trkpt>
      <trkpt lat="46.2191" lon="-1.18568">
        <ele>5.91</ele>
        <time>2021-08-03T13:50:02Z</time>
      </trkpt>
      <trkpt lat="46.21918" lon="-1.18589">
        <ele>3.98</ele>
        <time>2021-08-03T13:50:19Z</time>
      </trkpt>
      <trkpt lat="46.21922" lon="-1.18595">
        <ele>3.98</ele>
        <time>2021-08-03T13:50:29Z</time>
      </trkpt>
      <trkpt lat="46.21929" lon="-1.18612">
        <ele>2.06</ele>
        <time>2021-08-03T13:50:46Z</time>
      </trkpt>
      <trkpt lat="46.2193" lon="-1.18615">
        <ele>1.1</ele>
        <time>2021-08-03T13:51:01Z</time>
      </trkpt>
      <trkpt lat="46.21928" lon="-1.18614">
        <ele>1.58</ele>
        <time>2021-08-03T13:51:25Z</time>
      </trkpt>
      <trkpt lat="46.21927" lon="-1.18611">
        <ele>2.06</ele>
        <time>2021-08-03T13:51:48Z</time>
      </trkpt>
      <trkpt lat="46.2193" lon="-1.18613">
        <ele>2.06</ele>
        <time>2021-08-03T13:52:01Z</time>
      </trkpt>
      <trkpt lat="46.21928" lon="-1.18611">
        <ele>2.54</ele>
        <time>2021-08-03T13:52:16Z</time>
      </trkpt>
      <trkpt lat="46.21923" lon="-1.18597">
        <ele>2.54</ele>
        <time>2021-08-03T13:52:32Z</time>
      </trkpt>
      <trkpt lat="46.2192" lon="-1.18588">
        <ele>4.46</ele>
        <time>2021-08-03T13:52:49Z</time>
      </trkpt>
      <trkpt lat="46.2192" lon="-1.18584">
        <ele>4.46</ele>
        <time>2021-08-03T13:53:14Z</time>
      </trkpt>
      <trkpt lat="46.21911" lon="-1.1858">
        <ele>4.94</ele>
        <time>2021-08-03T13:53:36Z</time>
      </trkpt>
      <trkpt lat="46.21906" lon="-1.18567">
        <ele>6.39</ele>
        <time>2021-08-03T13:53:50Z</time>
      </trkpt>
      <trkpt lat="46.21899" lon="-1.18552">
        <ele>7.83</ele>
        <time>2021-08-03T13:54:06Z</time>
      </trkpt>
      <trkpt lat="46.21894" lon="-1.1854">
        <ele>8.31</ele>
        <time>2021-08-03T13:54:19Z</time>
      </trkpt>
      <trkpt lat="46.21887" lon="-1.18524">
        <ele>9.75</ele>
        <time>2021-08-03T13:54:35Z</time>
      </trkpt>
      <trkpt lat="46.2188" lon="-1.18508">
        <ele>10.71</ele>
        <time>2021-08-03T13:54:52Z</time>
      </trkpt>
      <trkpt lat="46.21877" lon="-1.185">
        <ele>11.19</ele>
        <time>2021-08-03T13:55:07Z</time>
      </trkpt>
      <trkpt lat="46.2187" lon="-1.18489">
        <ele>11.67</ele>
        <time>2021-08-03T13:55:21Z</time>
      </trkpt>
      <trkpt lat="46.2186" lon="-1.18483">
        <ele>12.15</ele>
        <time>2021-08-03T13:55:36Z</time>
      </trkpt>
      <trkpt lat="46.21858" lon="-1.18484">
        <ele>12.63</ele>
        <time>2021-08-03T13:55:38Z</time>
      </trkpt>
      <trkpt lat="46.21854" lon="-1.18486">
        <ele>12.15</ele>
        <time>2021-08-03T13:55:53Z</time>
      </trkpt>
      <trkpt lat="46.21852" lon="-1.18484">
        <ele>11.67</ele>
        <time>2021-08-03T13:56:14Z</time>
      </trkpt>
      <trkpt lat="46.21854" lon="-1.18485">
        <ele>11.67</ele>
        <time>2021-08-03T13:56:50Z</time>
      </trkpt>
      <trkpt lat="46.21853" lon="-1.18485">
        <ele>11.19</ele>
        <time>2021-08-03T13:57:14Z</time>
      </trkpt>
      <trkpt lat="46.21853" lon="-1.18482">
        <ele>12.15</ele>
        <time>2021-08-03T13:57:46Z</time>
      </trkpt>
    </trkseg>
  </trk>
</gpx>